<?xml version="1.0" encoding="UTF-8" standalone="no" ?>
<gpx xmlns="http://www.topografix.com/GPX/1/1" xmlns:xsi="http://www.w3.org/2001/XMLSchema-instance" xsi:schemaLocation="http://www.topografix.com/GPX/1/1 http://www.topografix.com/GPX/1/1/gpx.xsd" version="1.1" creator="VisuGPX - https://www.visugpx.com">
  <metadata>
    <name>Crêtes du LUZET  depuis le col de La Haute-Beaume</name>
    <desc><![CDATA[On suivra le PR du Luzet au départ du col de La Haute-Beaume.
Ascension des sommets 1671m et du LUZET 1692m en suivant le parcours balisé.
Pour le retour, des variantes seront suivies tel ascension du 1er sommet, et descente intégrale par une piste forestière.

[url=https://bd-rando.blogspot.com/2020/10/cretes-du-luzet.html]voir rando[/url]]]></desc>
  </metadata>
  <trk>
    <name><![CDATA[LUZET 28 13:17:20]]></name>
    <trkseg>
      <trkpt lat="44.57119" lon="5.63097">
        <ele>1259.005</ele>
        <time>2020-10-28T09:07:34Z</time>
      </trkpt>
      <trkpt lat="44.57119" lon="5.63097">
        <ele>1258.988</ele>
        <time>2020-10-28T09:07:35Z</time>
      </trkpt>
      <trkpt lat="44.57119" lon="5.63098">
        <ele>1259.137</ele>
        <time>2020-10-28T09:07:39Z</time>
      </trkpt>
      <trkpt lat="44.57115" lon="5.63097">
        <ele>1259.77</ele>
        <time>2020-10-28T09:07:46Z</time>
      </trkpt>
      <trkpt lat="44.5711" lon="5.63098">
        <ele>1260.591</ele>
        <time>2020-10-28T09:07:51Z</time>
      </trkpt>
      <trkpt lat="44.57097" lon="5.63096">
        <ele>1260.772</ele>
        <time>2020-10-28T09:08:03Z</time>
      </trkpt>
      <trkpt lat="44.57083" lon="5.631">
        <ele>1260.583</ele>
        <time>2020-10-28T09:08:16Z</time>
      </trkpt>
      <trkpt lat="44.57069" lon="5.63098">
        <ele>1261.267</ele>
        <time>2020-10-28T09:08:32Z</time>
      </trkpt>
      <trkpt lat="44.57063" lon="5.63097">
        <ele>1261.745</ele>
        <time>2020-10-28T09:08:38Z</time>
      </trkpt>
      <trkpt lat="44.5705" lon="5.63094">
        <ele>1264.062</ele>
        <time>2020-10-28T09:08:53Z</time>
      </trkpt>
      <trkpt lat="44.57038" lon="5.63085">
        <ele>1268.168</ele>
        <time>2020-10-28T09:09:10Z</time>
      </trkpt>
      <trkpt lat="44.5703" lon="5.63069">
        <ele>1271.472</ele>
        <time>2020-10-28T09:09:28Z</time>
      </trkpt>
      <trkpt lat="44.57019" lon="5.6305">
        <ele>1273.795</ele>
        <time>2020-10-28T09:09:46Z</time>
      </trkpt>
      <trkpt lat="44.57025" lon="5.63036">
        <ele>1277.289</ele>
        <time>2020-10-28T09:10:04Z</time>
      </trkpt>
      <trkpt lat="44.5704" lon="5.63035">
        <ele>1277.677</ele>
        <time>2020-10-28T09:10:22Z</time>
      </trkpt>
      <trkpt lat="44.57041" lon="5.63035">
        <ele>1277.742</ele>
        <time>2020-10-28T09:10:23Z</time>
      </trkpt>
      <trkpt lat="44.57053" lon="5.63022">
        <ele>1279.268</ele>
        <time>2020-10-28T09:10:37Z</time>
      </trkpt>
      <trkpt lat="44.57055" lon="5.63018">
        <ele>1279.394</ele>
        <time>2020-10-28T09:10:41Z</time>
      </trkpt>
      <trkpt lat="44.57055" lon="5.63015">
        <ele>1279.477</ele>
        <time>2020-10-28T09:10:43Z</time>
      </trkpt>
      <trkpt lat="44.57054" lon="5.62997">
        <ele>1280.148</ele>
        <time>2020-10-28T09:11:00Z</time>
      </trkpt>
      <trkpt lat="44.57044" lon="5.6298">
        <ele>1281.864</ele>
        <time>2020-10-28T09:11:20Z</time>
      </trkpt>
      <trkpt lat="44.57037" lon="5.62958">
        <ele>1284.249</ele>
        <time>2020-10-28T09:11:39Z</time>
      </trkpt>
      <trkpt lat="44.57029" lon="5.62937">
        <ele>1288.044</ele>
        <time>2020-10-28T09:11:57Z</time>
      </trkpt>
      <trkpt lat="44.57028" lon="5.62933">
        <ele>1288.587</ele>
        <time>2020-10-28T09:12:00Z</time>
      </trkpt>
      <trkpt lat="44.57017" lon="5.62911">
        <ele>1292.196</ele>
        <time>2020-10-28T09:12:18Z</time>
      </trkpt>
      <trkpt lat="44.57016" lon="5.62905">
        <ele>1291.915</ele>
        <time>2020-10-28T09:12:23Z</time>
      </trkpt>
      <trkpt lat="44.57016" lon="5.62897">
        <ele>1291.054</ele>
        <time>2020-10-28T09:12:29Z</time>
      </trkpt>
      <trkpt lat="44.57015" lon="5.62884">
        <ele>1291.047</ele>
        <time>2020-10-28T09:12:39Z</time>
      </trkpt>
      <trkpt lat="44.57014" lon="5.62874">
        <ele>1292.153</ele>
        <time>2020-10-28T09:12:46Z</time>
      </trkpt>
      <trkpt lat="44.57014" lon="5.62871">
        <ele>1292.332</ele>
        <time>2020-10-28T09:12:48Z</time>
      </trkpt>
      <trkpt lat="44.5701" lon="5.62853">
        <ele>1295.127</ele>
        <time>2020-10-28T09:13:01Z</time>
      </trkpt>
      <trkpt lat="44.57011" lon="5.62845">
        <ele>1295.535</ele>
        <time>2020-10-28T09:13:06Z</time>
      </trkpt>
      <trkpt lat="44.5701" lon="5.62834">
        <ele>1297.199</ele>
        <time>2020-10-28T09:13:14Z</time>
      </trkpt>
      <trkpt lat="44.5701" lon="5.62823">
        <ele>1297.265</ele>
        <time>2020-10-28T09:13:29Z</time>
      </trkpt>
      <trkpt lat="44.57006" lon="5.62809">
        <ele>1299.357</ele>
        <time>2020-10-28T09:13:40Z</time>
      </trkpt>
      <trkpt lat="44.57004" lon="5.62788">
        <ele>1300.269</ele>
        <time>2020-10-28T09:13:59Z</time>
      </trkpt>
      <trkpt lat="44.57004" lon="5.62769">
        <ele>1299.995</ele>
        <time>2020-10-28T09:14:16Z</time>
      </trkpt>
      <trkpt lat="44.56999" lon="5.62748">
        <ele>1301.68</ele>
        <time>2020-10-28T09:14:31Z</time>
      </trkpt>
      <trkpt lat="44.56994" lon="5.6272">
        <ele>1304.007</ele>
        <time>2020-10-28T09:14:52Z</time>
      </trkpt>
      <trkpt lat="44.56991" lon="5.62693">
        <ele>1305.616</ele>
        <time>2020-10-28T09:15:13Z</time>
      </trkpt>
      <trkpt lat="44.56989" lon="5.62669">
        <ele>1306.737</ele>
        <time>2020-10-28T09:15:32Z</time>
      </trkpt>
      <trkpt lat="44.56985" lon="5.62645">
        <ele>1311.984</ele>
        <time>2020-10-28T09:15:50Z</time>
      </trkpt>
      <trkpt lat="44.56987" lon="5.62619">
        <ele>1313.418</ele>
        <time>2020-10-28T09:16:10Z</time>
      </trkpt>
      <trkpt lat="44.56983" lon="5.62591">
        <ele>1320.409</ele>
        <time>2020-10-28T09:16:29Z</time>
      </trkpt>
      <trkpt lat="44.5699" lon="5.62564">
        <ele>1319.233</ele>
        <time>2020-10-28T09:16:49Z</time>
      </trkpt>
      <trkpt lat="44.56991" lon="5.62541">
        <ele>1323.542</ele>
        <time>2020-10-28T09:17:08Z</time>
      </trkpt>
      <trkpt lat="44.56992" lon="5.62534">
        <ele>1324.068</ele>
        <time>2020-10-28T09:17:13Z</time>
      </trkpt>
      <trkpt lat="44.56995" lon="5.62526">
        <ele>1323.693</ele>
        <time>2020-10-28T09:17:20Z</time>
      </trkpt>
      <trkpt lat="44.57003" lon="5.62504">
        <ele>1324.408</ele>
        <time>2020-10-28T09:17:39Z</time>
      </trkpt>
      <trkpt lat="44.57007" lon="5.62479">
        <ele>1328.413</ele>
        <time>2020-10-28T09:17:59Z</time>
      </trkpt>
      <trkpt lat="44.57012" lon="5.62454">
        <ele>1329.902</ele>
        <time>2020-10-28T09:18:21Z</time>
      </trkpt>
      <trkpt lat="44.57013" lon="5.62432">
        <ele>1332.326</ele>
        <time>2020-10-28T09:18:41Z</time>
      </trkpt>
      <trkpt lat="44.57014" lon="5.62411">
        <ele>1334.202</ele>
        <time>2020-10-28T09:19:02Z</time>
      </trkpt>
      <trkpt lat="44.57016" lon="5.62393">
        <ele>1334.494</ele>
        <time>2020-10-28T09:19:20Z</time>
      </trkpt>
      <trkpt lat="44.5702" lon="5.62369">
        <ele>1335.475</ele>
        <time>2020-10-28T09:19:39Z</time>
      </trkpt>
      <trkpt lat="44.57018" lon="5.62343">
        <ele>1339.424</ele>
        <time>2020-10-28T09:20:00Z</time>
      </trkpt>
      <trkpt lat="44.57012" lon="5.62322">
        <ele>1345.93</ele>
        <time>2020-10-28T09:20:18Z</time>
      </trkpt>
      <trkpt lat="44.57011" lon="5.62306">
        <ele>1349.432</ele>
        <time>2020-10-28T09:20:32Z</time>
      </trkpt>
      <trkpt lat="44.57008" lon="5.62285">
        <ele>1354.174</ele>
        <time>2020-10-28T09:20:51Z</time>
      </trkpt>
      <trkpt lat="44.57012" lon="5.62267">
        <ele>1353.867</ele>
        <time>2020-10-28T09:21:07Z</time>
      </trkpt>
      <trkpt lat="44.57013" lon="5.62246">
        <ele>1354.796</ele>
        <time>2020-10-28T09:21:26Z</time>
      </trkpt>
      <trkpt lat="44.57013" lon="5.6223">
        <ele>1354.759</ele>
        <time>2020-10-28T09:21:46Z</time>
      </trkpt>
      <trkpt lat="44.5701" lon="5.62218">
        <ele>1357.667</ele>
        <time>2020-10-28T09:21:58Z</time>
      </trkpt>
      <trkpt lat="44.57014" lon="5.62202">
        <ele>1358.126</ele>
        <time>2020-10-28T09:22:15Z</time>
      </trkpt>
      <trkpt lat="44.5703" lon="5.62182">
        <ele>1355.052</ele>
        <time>2020-10-28T09:22:36Z</time>
      </trkpt>
      <trkpt lat="44.57038" lon="5.62159">
        <ele>1356.877</ele>
        <time>2020-10-28T09:22:58Z</time>
      </trkpt>
      <trkpt lat="44.57049" lon="5.62142">
        <ele>1353.029</ele>
        <time>2020-10-28T09:23:18Z</time>
      </trkpt>
      <trkpt lat="44.57036" lon="5.62129">
        <ele>1362.401</ele>
        <time>2020-10-28T09:23:37Z</time>
      </trkpt>
      <trkpt lat="44.5703" lon="5.62149">
        <ele>1363.745</ele>
        <time>2020-10-28T09:23:56Z</time>
      </trkpt>
      <trkpt lat="44.5702" lon="5.62162">
        <ele>1365.423</ele>
        <time>2020-10-28T09:24:17Z</time>
      </trkpt>
      <trkpt lat="44.5701" lon="5.62172">
        <ele>1367.24</ele>
        <time>2020-10-28T09:24:35Z</time>
      </trkpt>
      <trkpt lat="44.57" lon="5.62175">
        <ele>1371.075</ele>
        <time>2020-10-28T09:24:53Z</time>
      </trkpt>
      <trkpt lat="44.56993" lon="5.62183">
        <ele>1373.649</ele>
        <time>2020-10-28T09:25:09Z</time>
      </trkpt>
      <trkpt lat="44.56986" lon="5.62209">
        <ele>1375.807</ele>
        <time>2020-10-28T09:25:27Z</time>
      </trkpt>
      <trkpt lat="44.56985" lon="5.62214">
        <ele>1375.694</ele>
        <time>2020-10-28T09:25:33Z</time>
      </trkpt>
      <trkpt lat="44.56981" lon="5.62233">
        <ele>1377.108</ele>
        <time>2020-10-28T09:25:54Z</time>
      </trkpt>
      <trkpt lat="44.56978" lon="5.62242">
        <ele>1378.546</ele>
        <time>2020-10-28T09:26:05Z</time>
      </trkpt>
      <trkpt lat="44.56969" lon="5.62263">
        <ele>1382.755</ele>
        <time>2020-10-28T09:26:25Z</time>
      </trkpt>
      <trkpt lat="44.56961" lon="5.62284">
        <ele>1386.04</ele>
        <time>2020-10-28T09:26:46Z</time>
      </trkpt>
      <trkpt lat="44.56952" lon="5.62303">
        <ele>1390.922</ele>
        <time>2020-10-28T09:27:07Z</time>
      </trkpt>
      <trkpt lat="44.56944" lon="5.6232">
        <ele>1393.713</ele>
        <time>2020-10-28T09:27:27Z</time>
      </trkpt>
      <trkpt lat="44.56934" lon="5.62347">
        <ele>1396.13</ele>
        <time>2020-10-28T09:27:51Z</time>
      </trkpt>
      <trkpt lat="44.56924" lon="5.62362">
        <ele>1401.331</ele>
        <time>2020-10-28T09:28:09Z</time>
      </trkpt>
      <trkpt lat="44.56921" lon="5.62343">
        <ele>1405.087</ele>
        <time>2020-10-28T09:28:28Z</time>
      </trkpt>
      <trkpt lat="44.56924" lon="5.62318">
        <ele>1405.824</ele>
        <time>2020-10-28T09:28:51Z</time>
      </trkpt>
      <trkpt lat="44.5693" lon="5.62298">
        <ele>1404.132</ele>
        <time>2020-10-28T09:29:12Z</time>
      </trkpt>
      <trkpt lat="44.5693" lon="5.62276">
        <ele>1405.768</ele>
        <time>2020-10-28T09:29:35Z</time>
      </trkpt>
      <trkpt lat="44.56928" lon="5.62263">
        <ele>1406.687</ele>
        <time>2020-10-28T09:29:47Z</time>
      </trkpt>
      <trkpt lat="44.56916" lon="5.62236">
        <ele>1410.144</ele>
        <time>2020-10-28T09:30:11Z</time>
      </trkpt>
      <trkpt lat="44.56909" lon="5.62224">
        <ele>1411.401</ele>
        <time>2020-10-28T09:30:27Z</time>
      </trkpt>
      <trkpt lat="44.56892" lon="5.62194">
        <ele>1413.136</ele>
        <time>2020-10-28T09:30:46Z</time>
      </trkpt>
      <trkpt lat="44.56883" lon="5.62168">
        <ele>1414.797</ele>
        <time>2020-10-28T09:31:06Z</time>
      </trkpt>
      <trkpt lat="44.5688" lon="5.62149">
        <ele>1417.818</ele>
        <time>2020-10-28T09:31:25Z</time>
      </trkpt>
      <trkpt lat="44.56874" lon="5.62111">
        <ele>1423.226</ele>
        <time>2020-10-28T09:31:47Z</time>
      </trkpt>
      <trkpt lat="44.56878" lon="5.62089">
        <ele>1424.477</ele>
        <time>2020-10-28T09:32:07Z</time>
      </trkpt>
      <trkpt lat="44.56884" lon="5.62066">
        <ele>1425.604</ele>
        <time>2020-10-28T09:32:29Z</time>
      </trkpt>
      <trkpt lat="44.56887" lon="5.62056">
        <ele>1426.12</ele>
        <time>2020-10-28T09:32:38Z</time>
      </trkpt>
      <trkpt lat="44.56898" lon="5.6203">
        <ele>1428.716</ele>
        <time>2020-10-28T09:32:56Z</time>
      </trkpt>
      <trkpt lat="44.56913" lon="5.62008">
        <ele>1431.826</ele>
        <time>2020-10-28T09:33:16Z</time>
      </trkpt>
      <trkpt lat="44.56926" lon="5.61999">
        <ele>1430.041</ele>
        <time>2020-10-28T09:33:32Z</time>
      </trkpt>
      <trkpt lat="44.56937" lon="5.61984">
        <ele>1428.106</ele>
        <time>2020-10-28T09:33:48Z</time>
      </trkpt>
      <trkpt lat="44.56946" lon="5.61968">
        <ele>1425.725</ele>
        <time>2020-10-28T09:34:02Z</time>
      </trkpt>
      <trkpt lat="44.56948" lon="5.61963">
        <ele>1425.355</ele>
        <time>2020-10-28T09:34:06Z</time>
      </trkpt>
      <trkpt lat="44.56951" lon="5.61956">
        <ele>1424.955</ele>
        <time>2020-10-28T09:34:11Z</time>
      </trkpt>
      <trkpt lat="44.56955" lon="5.6193">
        <ele>1424.783</ele>
        <time>2020-10-28T09:34:29Z</time>
      </trkpt>
      <trkpt lat="44.56956" lon="5.61905">
        <ele>1424.92</ele>
        <time>2020-10-28T09:34:46Z</time>
      </trkpt>
      <trkpt lat="44.56957" lon="5.61887">
        <ele>1423.979</ele>
        <time>2020-10-28T09:35:00Z</time>
      </trkpt>
      <trkpt lat="44.56957" lon="5.61867">
        <ele>1422.938</ele>
        <time>2020-10-28T09:35:15Z</time>
      </trkpt>
      <trkpt lat="44.56956" lon="5.61841">
        <ele>1424.161</ele>
        <time>2020-10-28T09:35:38Z</time>
      </trkpt>
      <trkpt lat="44.56952" lon="5.61814">
        <ele>1426.432</ele>
        <time>2020-10-28T09:35:58Z</time>
      </trkpt>
      <trkpt lat="44.5695" lon="5.61802">
        <ele>1427.623</ele>
        <time>2020-10-28T09:36:06Z</time>
      </trkpt>
      <trkpt lat="44.5695" lon="5.61775">
        <ele>1430.878</ele>
        <time>2020-10-28T09:36:20Z</time>
      </trkpt>
      <trkpt lat="44.5696" lon="5.61754">
        <ele>1432.86</ele>
        <time>2020-10-28T09:36:38Z</time>
      </trkpt>
      <trkpt lat="44.5697" lon="5.61731">
        <ele>1435.012</ele>
        <time>2020-10-28T09:36:56Z</time>
      </trkpt>
      <trkpt lat="44.56977" lon="5.61724">
        <ele>1435.648</ele>
        <time>2020-10-28T09:37:09Z</time>
      </trkpt>
      <trkpt lat="44.56988" lon="5.61712">
        <ele>1437.999</ele>
        <time>2020-10-28T09:37:28Z</time>
      </trkpt>
      <trkpt lat="44.56997" lon="5.61712">
        <ele>1437.932</ele>
        <time>2020-10-28T09:37:51Z</time>
      </trkpt>
      <trkpt lat="44.57005" lon="5.61707">
        <ele>1438.863</ele>
        <time>2020-10-28T09:38:09Z</time>
      </trkpt>
      <trkpt lat="44.57017" lon="5.61703">
        <ele>1440.072</ele>
        <time>2020-10-28T09:38:28Z</time>
      </trkpt>
      <trkpt lat="44.57028" lon="5.61696">
        <ele>1441.874</ele>
        <time>2020-10-28T09:38:49Z</time>
      </trkpt>
      <trkpt lat="44.57035" lon="5.61691">
        <ele>1444.45</ele>
        <time>2020-10-28T09:39:06Z</time>
      </trkpt>
      <trkpt lat="44.57046" lon="5.61689">
        <ele>1447.075</ele>
        <time>2020-10-28T09:39:24Z</time>
      </trkpt>
      <trkpt lat="44.57058" lon="5.61684">
        <ele>1450.972</ele>
        <time>2020-10-28T09:39:42Z</time>
      </trkpt>
      <trkpt lat="44.57063" lon="5.61678">
        <ele>1453.889</ele>
        <time>2020-10-28T09:39:58Z</time>
      </trkpt>
      <trkpt lat="44.57069" lon="5.61671">
        <ele>1457.347</ele>
        <time>2020-10-28T09:40:15Z</time>
      </trkpt>
      <trkpt lat="44.57076" lon="5.6167">
        <ele>1459.825</ele>
        <time>2020-10-28T09:40:34Z</time>
      </trkpt>
      <trkpt lat="44.57086" lon="5.61673">
        <ele>1462.267</ele>
        <time>2020-10-28T09:40:55Z</time>
      </trkpt>
      <trkpt lat="44.57089" lon="5.61676">
        <ele>1462.426</ele>
        <time>2020-10-28T09:41:15Z</time>
      </trkpt>
      <trkpt lat="44.57099" lon="5.61675">
        <ele>1465.25</ele>
        <time>2020-10-28T09:41:36Z</time>
      </trkpt>
      <trkpt lat="44.57101" lon="5.61675">
        <ele>1465.734</ele>
        <time>2020-10-28T09:41:40Z</time>
      </trkpt>
      <trkpt lat="44.57117" lon="5.61675">
        <ele>1469.805</ele>
        <time>2020-10-28T09:42:05Z</time>
      </trkpt>
      <trkpt lat="44.5713" lon="5.61674">
        <ele>1472.514</ele>
        <time>2020-10-28T09:42:24Z</time>
      </trkpt>
      <trkpt lat="44.57132" lon="5.61673">
        <ele>1473.139</ele>
        <time>2020-10-28T09:42:28Z</time>
      </trkpt>
      <trkpt lat="44.57146" lon="5.61676">
        <ele>1473.921</ele>
        <time>2020-10-28T09:42:53Z</time>
      </trkpt>
      <trkpt lat="44.57155" lon="5.61668">
        <ele>1475.201</ele>
        <time>2020-10-28T09:43:09Z</time>
      </trkpt>
      <trkpt lat="44.5717" lon="5.61659">
        <ele>1475.977</ele>
        <time>2020-10-28T09:43:26Z</time>
      </trkpt>
      <trkpt lat="44.57183" lon="5.61648">
        <ele>1475.478</ele>
        <time>2020-10-28T09:43:47Z</time>
      </trkpt>
      <trkpt lat="44.57194" lon="5.61635">
        <ele>1475.993</ele>
        <time>2020-10-28T09:44:06Z</time>
      </trkpt>
      <trkpt lat="44.57207" lon="5.61615">
        <ele>1478.387</ele>
        <time>2020-10-28T09:44:29Z</time>
      </trkpt>
      <trkpt lat="44.57229" lon="5.61602">
        <ele>1477.316</ele>
        <time>2020-10-28T09:44:47Z</time>
      </trkpt>
      <trkpt lat="44.5725" lon="5.61593">
        <ele>1473.663</ele>
        <time>2020-10-28T09:45:02Z</time>
      </trkpt>
      <trkpt lat="44.57261" lon="5.61586">
        <ele>1475.339</ele>
        <time>2020-10-28T09:45:17Z</time>
      </trkpt>
      <trkpt lat="44.57262" lon="5.61586">
        <ele>1475.385</ele>
        <time>2020-10-28T09:45:18Z</time>
      </trkpt>
      <trkpt lat="44.57279" lon="5.61584">
        <ele>1475.858</ele>
        <time>2020-10-28T09:45:41Z</time>
      </trkpt>
      <trkpt lat="44.57295" lon="5.61588">
        <ele>1476.869</ele>
        <time>2020-10-28T09:46:05Z</time>
      </trkpt>
      <trkpt lat="44.57313" lon="5.6159">
        <ele>1477.25</ele>
        <time>2020-10-28T09:46:27Z</time>
      </trkpt>
      <trkpt lat="44.57339" lon="5.61592">
        <ele>1475.968</ele>
        <time>2020-10-28T09:46:46Z</time>
      </trkpt>
      <trkpt lat="44.57355" lon="5.61594">
        <ele>1474.618</ele>
        <time>2020-10-28T09:47:07Z</time>
      </trkpt>
      <trkpt lat="44.57367" lon="5.61593">
        <ele>1474.596</ele>
        <time>2020-10-28T09:47:24Z</time>
      </trkpt>
      <trkpt lat="44.57385" lon="5.61597">
        <ele>1475.69</ele>
        <time>2020-10-28T09:47:40Z</time>
      </trkpt>
      <trkpt lat="44.57392" lon="5.61605">
        <ele>1477.177</ele>
        <time>2020-10-28T09:47:49Z</time>
      </trkpt>
      <trkpt lat="44.57402" lon="5.61617">
        <ele>1479.65</ele>
        <time>2020-10-28T09:48:04Z</time>
      </trkpt>
      <trkpt lat="44.57414" lon="5.61628">
        <ele>1482.097</ele>
        <time>2020-10-28T09:48:25Z</time>
      </trkpt>
      <trkpt lat="44.57425" lon="5.61639">
        <ele>1484.241</ele>
        <time>2020-10-28T09:48:43Z</time>
      </trkpt>
      <trkpt lat="44.57444" lon="5.61657">
        <ele>1487.007</ele>
        <time>2020-10-28T09:49:08Z</time>
      </trkpt>
      <trkpt lat="44.5746" lon="5.61671">
        <ele>1490.225</ele>
        <time>2020-10-28T09:49:28Z</time>
      </trkpt>
      <trkpt lat="44.57474" lon="5.61682">
        <ele>1492.073</ele>
        <time>2020-10-28T09:49:48Z</time>
      </trkpt>
      <trkpt lat="44.57483" lon="5.61694">
        <ele>1492.722</ele>
        <time>2020-10-28T09:50:07Z</time>
      </trkpt>
      <trkpt lat="44.57491" lon="5.61694">
        <ele>1494.673</ele>
        <time>2020-10-28T09:50:25Z</time>
      </trkpt>
      <trkpt lat="44.57493" lon="5.61691">
        <ele>1495.583</ele>
        <time>2020-10-28T09:50:43Z</time>
      </trkpt>
      <trkpt lat="44.57491" lon="5.6168">
        <ele>1496.383</ele>
        <time>2020-10-28T09:50:54Z</time>
      </trkpt>
      <trkpt lat="44.57489" lon="5.61674">
        <ele>1496.665</ele>
        <time>2020-10-28T09:50:58Z</time>
      </trkpt>
      <trkpt lat="44.57489" lon="5.61656">
        <ele>1497.905</ele>
        <time>2020-10-28T09:51:13Z</time>
      </trkpt>
      <trkpt lat="44.57498" lon="5.61647">
        <ele>1500.223</ele>
        <time>2020-10-28T09:51:31Z</time>
      </trkpt>
      <trkpt lat="44.57512" lon="5.61646">
        <ele>1503.172</ele>
        <time>2020-10-28T09:51:53Z</time>
      </trkpt>
      <trkpt lat="44.57521" lon="5.61648">
        <ele>1504.675</ele>
        <time>2020-10-28T09:52:05Z</time>
      </trkpt>
      <trkpt lat="44.57532" lon="5.61657">
        <ele>1506.205</ele>
        <time>2020-10-28T09:52:21Z</time>
      </trkpt>
      <trkpt lat="44.57537" lon="5.61654">
        <ele>1507.62</ele>
        <time>2020-10-28T09:52:29Z</time>
      </trkpt>
      <trkpt lat="44.57548" lon="5.61649">
        <ele>1511.128</ele>
        <time>2020-10-28T09:52:50Z</time>
      </trkpt>
      <trkpt lat="44.57555" lon="5.61651">
        <ele>1512.532</ele>
        <time>2020-10-28T09:53:05Z</time>
      </trkpt>
      <trkpt lat="44.57565" lon="5.61651">
        <ele>1517.3</ele>
        <time>2020-10-28T09:53:28Z</time>
      </trkpt>
      <trkpt lat="44.57573" lon="5.61653">
        <ele>1520.614</ele>
        <time>2020-10-28T09:53:46Z</time>
      </trkpt>
      <trkpt lat="44.57582" lon="5.61659">
        <ele>1524.393</ele>
        <time>2020-10-28T09:54:04Z</time>
      </trkpt>
      <trkpt lat="44.5759" lon="5.61664">
        <ele>1527.54</ele>
        <time>2020-10-28T09:54:21Z</time>
      </trkpt>
      <trkpt lat="44.57595" lon="5.61669">
        <ele>1528.058</ele>
        <time>2020-10-28T09:54:40Z</time>
      </trkpt>
      <trkpt lat="44.57601" lon="5.61673">
        <ele>1528.544</ele>
        <time>2020-10-28T09:55:01Z</time>
      </trkpt>
      <trkpt lat="44.5761" lon="5.61679">
        <ele>1528.644</ele>
        <time>2020-10-28T09:55:23Z</time>
      </trkpt>
      <trkpt lat="44.57618" lon="5.61676">
        <ele>1531.814</ele>
        <time>2020-10-28T09:55:40Z</time>
      </trkpt>
      <trkpt lat="44.57626" lon="5.61677">
        <ele>1533.085</ele>
        <time>2020-10-28T09:55:57Z</time>
      </trkpt>
      <trkpt lat="44.57634" lon="5.61674">
        <ele>1536.363</ele>
        <time>2020-10-28T09:56:15Z</time>
      </trkpt>
      <trkpt lat="44.57642" lon="5.61676">
        <ele>1537.007</ele>
        <time>2020-10-28T09:56:34Z</time>
      </trkpt>
      <trkpt lat="44.57654" lon="5.61676">
        <ele>1539.763</ele>
        <time>2020-10-28T09:56:52Z</time>
      </trkpt>
      <trkpt lat="44.57665" lon="5.61675">
        <ele>1542.607</ele>
        <time>2020-10-28T09:57:12Z</time>
      </trkpt>
      <trkpt lat="44.57671" lon="5.61676">
        <ele>1543.438</ele>
        <time>2020-10-28T09:57:29Z</time>
      </trkpt>
      <trkpt lat="44.57685" lon="5.6168">
        <ele>1543.83</ele>
        <time>2020-10-28T09:57:49Z</time>
      </trkpt>
      <trkpt lat="44.57689" lon="5.61681">
        <ele>1543.752</ele>
        <time>2020-10-28T09:58:07Z</time>
      </trkpt>
      <trkpt lat="44.577" lon="5.61681">
        <ele>1545.631</ele>
        <time>2020-10-28T09:58:25Z</time>
      </trkpt>
      <trkpt lat="44.57713" lon="5.61679">
        <ele>1548.162</ele>
        <time>2020-10-28T09:58:45Z</time>
      </trkpt>
      <trkpt lat="44.57719" lon="5.61678">
        <ele>1549.734</ele>
        <time>2020-10-28T09:59:04Z</time>
      </trkpt>
      <trkpt lat="44.57725" lon="5.61674">
        <ele>1552.154</ele>
        <time>2020-10-28T09:59:23Z</time>
      </trkpt>
      <trkpt lat="44.5774" lon="5.61672">
        <ele>1554.797</ele>
        <time>2020-10-28T09:59:48Z</time>
      </trkpt>
      <trkpt lat="44.57755" lon="5.61671">
        <ele>1557.022</ele>
        <time>2020-10-28T10:00:10Z</time>
      </trkpt>
      <trkpt lat="44.57761" lon="5.61671">
        <ele>1557.933</ele>
        <time>2020-10-28T10:00:29Z</time>
      </trkpt>
      <trkpt lat="44.5777" lon="5.61669">
        <ele>1560.001</ele>
        <time>2020-10-28T10:00:48Z</time>
      </trkpt>
      <trkpt lat="44.57772" lon="5.61668">
        <ele>1560.492</ele>
        <time>2020-10-28T10:00:54Z</time>
      </trkpt>
      <trkpt lat="44.57784" lon="5.61663">
        <ele>1564.725</ele>
        <time>2020-10-28T10:01:14Z</time>
      </trkpt>
      <trkpt lat="44.57791" lon="5.61659">
        <ele>1567.269</ele>
        <time>2020-10-28T10:01:32Z</time>
      </trkpt>
      <trkpt lat="44.57799" lon="5.61658">
        <ele>1568.794</ele>
        <time>2020-10-28T10:01:52Z</time>
      </trkpt>
      <trkpt lat="44.57799" lon="5.61658">
        <ele>1568.713</ele>
        <time>2020-10-28T10:01:58Z</time>
      </trkpt>
      <trkpt lat="44.57807" lon="5.61655">
        <ele>1571.028</ele>
        <time>2020-10-28T10:02:19Z</time>
      </trkpt>
      <trkpt lat="44.5781" lon="5.61653">
        <ele>1572.282</ele>
        <time>2020-10-28T10:02:40Z</time>
      </trkpt>
      <trkpt lat="44.57813" lon="5.61652">
        <ele>1573.293</ele>
        <time>2020-10-28T10:02:45Z</time>
      </trkpt>
      <trkpt lat="44.57826" lon="5.6165">
        <ele>1576.374</ele>
        <time>2020-10-28T10:03:06Z</time>
      </trkpt>
      <trkpt lat="44.57834" lon="5.61652">
        <ele>1576.963</ele>
        <time>2020-10-28T10:03:30Z</time>
      </trkpt>
      <trkpt lat="44.57851" lon="5.61657">
        <ele>1578.457</ele>
        <time>2020-10-28T10:03:49Z</time>
      </trkpt>
      <trkpt lat="44.57865" lon="5.61659">
        <ele>1580.605</ele>
        <time>2020-10-28T10:04:09Z</time>
      </trkpt>
      <trkpt lat="44.57879" lon="5.61664">
        <ele>1581.868</ele>
        <time>2020-10-28T10:04:28Z</time>
      </trkpt>
      <trkpt lat="44.57895" lon="5.61667">
        <ele>1584.31</ele>
        <time>2020-10-28T10:04:46Z</time>
      </trkpt>
      <trkpt lat="44.57906" lon="5.61671">
        <ele>1586.17</ele>
        <time>2020-10-28T10:05:03Z</time>
      </trkpt>
      <trkpt lat="44.57921" lon="5.61676">
        <ele>1588.074</ele>
        <time>2020-10-28T10:05:23Z</time>
      </trkpt>
      <trkpt lat="44.57928" lon="5.6168">
        <ele>1588.117</ele>
        <time>2020-10-28T10:05:42Z</time>
      </trkpt>
      <trkpt lat="44.5794" lon="5.61685">
        <ele>1588.886</ele>
        <time>2020-10-28T10:05:59Z</time>
      </trkpt>
      <trkpt lat="44.57954" lon="5.61689">
        <ele>1590.15</ele>
        <time>2020-10-28T10:06:17Z</time>
      </trkpt>
      <trkpt lat="44.57968" lon="5.61687">
        <ele>1593.362</ele>
        <time>2020-10-28T10:06:36Z</time>
      </trkpt>
      <trkpt lat="44.5798" lon="5.61683">
        <ele>1595.899</ele>
        <time>2020-10-28T10:06:56Z</time>
      </trkpt>
      <trkpt lat="44.57989" lon="5.61687">
        <ele>1595.398</ele>
        <time>2020-10-28T10:07:13Z</time>
      </trkpt>
      <trkpt lat="44.57994" lon="5.61689">
        <ele>1595.232</ele>
        <time>2020-10-28T10:07:20Z</time>
      </trkpt>
      <trkpt lat="44.58007" lon="5.61691">
        <ele>1594.649</ele>
        <time>2020-10-28T10:07:35Z</time>
      </trkpt>
      <trkpt lat="44.58021" lon="5.61701">
        <ele>1591.377</ele>
        <time>2020-10-28T10:07:56Z</time>
      </trkpt>
      <trkpt lat="44.58029" lon="5.61689">
        <ele>1594.25</ele>
        <time>2020-10-28T10:08:12Z</time>
      </trkpt>
      <trkpt lat="44.58031" lon="5.61687">
        <ele>1594.508</ele>
        <time>2020-10-28T10:08:14Z</time>
      </trkpt>
      <trkpt lat="44.58038" lon="5.61678">
        <ele>1595.653</ele>
        <time>2020-10-28T10:08:27Z</time>
      </trkpt>
      <trkpt lat="44.58045" lon="5.61676">
        <ele>1595.153</ele>
        <time>2020-10-28T10:08:44Z</time>
      </trkpt>
      <trkpt lat="44.5805" lon="5.61675">
        <ele>1594.733</ele>
        <time>2020-10-28T10:09:07Z</time>
      </trkpt>
      <trkpt lat="44.58052" lon="5.61674">
        <ele>1594.645</ele>
        <time>2020-10-28T10:09:09Z</time>
      </trkpt>
      <trkpt lat="44.5806" lon="5.61671">
        <ele>1594.067</ele>
        <time>2020-10-28T10:09:20Z</time>
      </trkpt>
      <trkpt lat="44.58067" lon="5.61666">
        <ele>1593.445</ele>
        <time>2020-10-28T10:09:29Z</time>
      </trkpt>
      <trkpt lat="44.58078" lon="5.61654">
        <ele>1588.231</ele>
        <time>2020-10-28T10:09:51Z</time>
      </trkpt>
      <trkpt lat="44.58078" lon="5.61658">
        <ele>1589.3</ele>
        <time>2020-10-28T10:10:14Z</time>
      </trkpt>
      <trkpt lat="44.5809" lon="5.61665">
        <ele>1587.689</ele>
        <time>2020-10-28T10:10:33Z</time>
      </trkpt>
      <trkpt lat="44.58098" lon="5.6167">
        <ele>1585.279</ele>
        <time>2020-10-28T10:10:51Z</time>
      </trkpt>
      <trkpt lat="44.58107" lon="5.61676">
        <ele>1581.786</ele>
        <time>2020-10-28T10:11:09Z</time>
      </trkpt>
      <trkpt lat="44.58121" lon="5.61679">
        <ele>1578.402</ele>
        <time>2020-10-28T10:11:28Z</time>
      </trkpt>
      <trkpt lat="44.58132" lon="5.61686">
        <ele>1576.264</ele>
        <time>2020-10-28T10:11:50Z</time>
      </trkpt>
      <trkpt lat="44.58135" lon="5.61686">
        <ele>1575.99</ele>
        <time>2020-10-28T10:11:52Z</time>
      </trkpt>
      <trkpt lat="44.58139" lon="5.61689">
        <ele>1575.627</ele>
        <time>2020-10-28T10:11:56Z</time>
      </trkpt>
      <trkpt lat="44.58156" lon="5.61696">
        <ele>1573.309</ele>
        <time>2020-10-28T10:12:12Z</time>
      </trkpt>
      <trkpt lat="44.58171" lon="5.61704">
        <ele>1570.44</ele>
        <time>2020-10-28T10:12:29Z</time>
      </trkpt>
      <trkpt lat="44.58185" lon="5.61714">
        <ele>1569.524</ele>
        <time>2020-10-28T10:12:46Z</time>
      </trkpt>
      <trkpt lat="44.58186" lon="5.61715">
        <ele>1569.533</ele>
        <time>2020-10-28T10:12:47Z</time>
      </trkpt>
      <trkpt lat="44.58189" lon="5.61715">
        <ele>1569.6</ele>
        <time>2020-10-28T10:12:50Z</time>
      </trkpt>
      <trkpt lat="44.58203" lon="5.61724">
        <ele>1569.709</ele>
        <time>2020-10-28T10:13:06Z</time>
      </trkpt>
      <trkpt lat="44.58219" lon="5.61739">
        <ele>1568.999</ele>
        <time>2020-10-28T10:13:24Z</time>
      </trkpt>
      <trkpt lat="44.58232" lon="5.61748">
        <ele>1571.013</ele>
        <time>2020-10-28T10:13:39Z</time>
      </trkpt>
      <trkpt lat="44.58233" lon="5.61748">
        <ele>1571.243</ele>
        <time>2020-10-28T10:13:40Z</time>
      </trkpt>
      <trkpt lat="44.58241" lon="5.6175">
        <ele>1573.004</ele>
        <time>2020-10-28T10:13:48Z</time>
      </trkpt>
      <trkpt lat="44.58247" lon="5.61758">
        <ele>1572.893</ele>
        <time>2020-10-28T10:13:58Z</time>
      </trkpt>
      <trkpt lat="44.58251" lon="5.61762">
        <ele>1573.22</ele>
        <time>2020-10-28T10:14:04Z</time>
      </trkpt>
      <trkpt lat="44.58257" lon="5.61766">
        <ele>1574.121</ele>
        <time>2020-10-28T10:14:18Z</time>
      </trkpt>
      <trkpt lat="44.58267" lon="5.61765">
        <ele>1577.163</ele>
        <time>2020-10-28T10:14:35Z</time>
      </trkpt>
      <trkpt lat="44.58277" lon="5.61766">
        <ele>1579.795</ele>
        <time>2020-10-28T10:14:50Z</time>
      </trkpt>
      <trkpt lat="44.58286" lon="5.61768">
        <ele>1582.079</ele>
        <time>2020-10-28T10:15:07Z</time>
      </trkpt>
      <trkpt lat="44.58294" lon="5.61769">
        <ele>1584.202</ele>
        <time>2020-10-28T10:15:24Z</time>
      </trkpt>
      <trkpt lat="44.58304" lon="5.61773">
        <ele>1587.212</ele>
        <time>2020-10-28T10:15:40Z</time>
      </trkpt>
      <trkpt lat="44.58313" lon="5.61775">
        <ele>1589.526</ele>
        <time>2020-10-28T10:15:57Z</time>
      </trkpt>
      <trkpt lat="44.58323" lon="5.61778">
        <ele>1592.481</ele>
        <time>2020-10-28T10:16:15Z</time>
      </trkpt>
      <trkpt lat="44.58334" lon="5.61779">
        <ele>1594.822</ele>
        <time>2020-10-28T10:16:31Z</time>
      </trkpt>
      <trkpt lat="44.58343" lon="5.61785">
        <ele>1596.389</ele>
        <time>2020-10-28T10:16:48Z</time>
      </trkpt>
      <trkpt lat="44.58352" lon="5.61784">
        <ele>1599.137</ele>
        <time>2020-10-28T10:17:05Z</time>
      </trkpt>
      <trkpt lat="44.58359" lon="5.61782">
        <ele>1601.148</ele>
        <time>2020-10-28T10:17:20Z</time>
      </trkpt>
      <trkpt lat="44.58369" lon="5.61783">
        <ele>1603.568</ele>
        <time>2020-10-28T10:17:38Z</time>
      </trkpt>
      <trkpt lat="44.58372" lon="5.61785">
        <ele>1604.413</ele>
        <time>2020-10-28T10:17:43Z</time>
      </trkpt>
      <trkpt lat="44.58381" lon="5.61785">
        <ele>1606.804</ele>
        <time>2020-10-28T10:17:57Z</time>
      </trkpt>
      <trkpt lat="44.58393" lon="5.61786">
        <ele>1607.722</ele>
        <time>2020-10-28T10:18:17Z</time>
      </trkpt>
      <trkpt lat="44.58398" lon="5.61792">
        <ele>1606.438</ele>
        <time>2020-10-28T10:18:34Z</time>
      </trkpt>
      <trkpt lat="44.58398" lon="5.61807">
        <ele>1606.712</ele>
        <time>2020-10-28T10:18:52Z</time>
      </trkpt>
      <trkpt lat="44.58401" lon="5.61817">
        <ele>1606.595</ele>
        <time>2020-10-28T10:19:00Z</time>
      </trkpt>
      <trkpt lat="44.58403" lon="5.61827">
        <ele>1606.751</ele>
        <time>2020-10-28T10:19:08Z</time>
      </trkpt>
      <trkpt lat="44.58405" lon="5.61852">
        <ele>1607.874</ele>
        <time>2020-10-28T10:19:27Z</time>
      </trkpt>
      <trkpt lat="44.58405" lon="5.6187">
        <ele>1609.131</ele>
        <time>2020-10-28T10:19:42Z</time>
      </trkpt>
      <trkpt lat="44.58403" lon="5.61887">
        <ele>1610.397</ele>
        <time>2020-10-28T10:19:59Z</time>
      </trkpt>
      <trkpt lat="44.58405" lon="5.61899">
        <ele>1612.728</ele>
        <time>2020-10-28T10:20:16Z</time>
      </trkpt>
      <trkpt lat="44.58405" lon="5.6191">
        <ele>1615.146</ele>
        <time>2020-10-28T10:20:35Z</time>
      </trkpt>
      <trkpt lat="44.58408" lon="5.61922">
        <ele>1618.736</ele>
        <time>2020-10-28T10:20:55Z</time>
      </trkpt>
      <trkpt lat="44.58405" lon="5.6193">
        <ele>1621.365</ele>
        <time>2020-10-28T10:21:11Z</time>
      </trkpt>
      <trkpt lat="44.58406" lon="5.61937">
        <ele>1624.326</ele>
        <time>2020-10-28T10:21:28Z</time>
      </trkpt>
      <trkpt lat="44.58406" lon="5.61944">
        <ele>1626.668</ele>
        <time>2020-10-28T10:21:47Z</time>
      </trkpt>
      <trkpt lat="44.58409" lon="5.61955">
        <ele>1630.924</ele>
        <time>2020-10-28T10:22:05Z</time>
      </trkpt>
      <trkpt lat="44.58409" lon="5.61958">
        <ele>1632.104</ele>
        <time>2020-10-28T10:22:26Z</time>
      </trkpt>
      <trkpt lat="44.58412" lon="5.61965">
        <ele>1635.294</ele>
        <time>2020-10-28T10:22:44Z</time>
      </trkpt>
      <trkpt lat="44.5841" lon="5.61976">
        <ele>1638.282</ele>
        <time>2020-10-28T10:23:02Z</time>
      </trkpt>
      <trkpt lat="44.58412" lon="5.61983">
        <ele>1640.216</ele>
        <time>2020-10-28T10:23:16Z</time>
      </trkpt>
      <trkpt lat="44.58417" lon="5.61989">
        <ele>1643.214</ele>
        <time>2020-10-28T10:23:33Z</time>
      </trkpt>
      <trkpt lat="44.58418" lon="5.6199">
        <ele>1643.753</ele>
        <time>2020-10-28T10:23:55Z</time>
      </trkpt>
      <trkpt lat="44.58424" lon="5.62001">
        <ele>1647.541</ele>
        <time>2020-10-28T10:24:13Z</time>
      </trkpt>
      <trkpt lat="44.58429" lon="5.62004">
        <ele>1648.923</ele>
        <time>2020-10-28T10:24:30Z</time>
      </trkpt>
      <trkpt lat="44.58432" lon="5.62009">
        <ele>1650.335</ele>
        <time>2020-10-28T10:24:48Z</time>
      </trkpt>
      <trkpt lat="44.58435" lon="5.62013">
        <ele>1652.123</ele>
        <time>2020-10-28T10:25:06Z</time>
      </trkpt>
      <trkpt lat="44.58437" lon="5.62018">
        <ele>1653.708</ele>
        <time>2020-10-28T10:25:26Z</time>
      </trkpt>
      <trkpt lat="44.5844" lon="5.62023">
        <ele>1656.138</ele>
        <time>2020-10-28T10:25:41Z</time>
      </trkpt>
      <trkpt lat="44.58445" lon="5.62028">
        <ele>1658.911</ele>
        <time>2020-10-28T10:25:58Z</time>
      </trkpt>
      <trkpt lat="44.58443" lon="5.62032">
        <ele>1658.353</ele>
        <time>2020-10-28T10:26:19Z</time>
      </trkpt>
      <trkpt lat="44.5845" lon="5.6204">
        <ele>1658.818</ele>
        <time>2020-10-28T10:26:40Z</time>
      </trkpt>
      <trkpt lat="44.58456" lon="5.62049">
        <ele>1660.585</ele>
        <time>2020-10-28T10:26:57Z</time>
      </trkpt>
      <trkpt lat="44.58465" lon="5.62065">
        <ele>1663.726</ele>
        <time>2020-10-28T10:27:20Z</time>
      </trkpt>
      <trkpt lat="44.58472" lon="5.62073">
        <ele>1665.739</ele>
        <time>2020-10-28T10:27:41Z</time>
      </trkpt>
      <trkpt lat="44.58475" lon="5.62077">
        <ele>1664.517</ele>
        <time>2020-10-28T10:28:02Z</time>
      </trkpt>
      <trkpt lat="44.58482" lon="5.62082">
        <ele>1662.868</ele>
        <time>2020-10-28T10:28:22Z</time>
      </trkpt>
      <trkpt lat="44.58484" lon="5.62084">
        <ele>1662.43</ele>
        <time>2020-10-28T10:28:42Z</time>
      </trkpt>
      <trkpt lat="44.58489" lon="5.62087">
        <ele>1660.617</ele>
        <time>2020-10-28T10:29:00Z</time>
      </trkpt>
      <trkpt lat="44.58491" lon="5.62088">
        <ele>1660.092</ele>
        <time>2020-10-28T10:29:22Z</time>
      </trkpt>
      <trkpt lat="44.58499" lon="5.62092">
        <ele>1658.456</ele>
        <time>2020-10-28T10:29:43Z</time>
      </trkpt>
      <trkpt lat="44.5851" lon="5.62101">
        <ele>1654.467</ele>
        <time>2020-10-28T10:30:03Z</time>
      </trkpt>
      <trkpt lat="44.58524" lon="5.62112">
        <ele>1651.744</ele>
        <time>2020-10-28T10:30:26Z</time>
      </trkpt>
      <trkpt lat="44.58531" lon="5.62121">
        <ele>1648.845</ele>
        <time>2020-10-28T10:30:44Z</time>
      </trkpt>
      <trkpt lat="44.58543" lon="5.62135">
        <ele>1644.742</ele>
        <time>2020-10-28T10:31:07Z</time>
      </trkpt>
      <trkpt lat="44.58556" lon="5.6215">
        <ele>1642.695</ele>
        <time>2020-10-28T10:31:25Z</time>
      </trkpt>
      <trkpt lat="44.58565" lon="5.62168">
        <ele>1640.156</ele>
        <time>2020-10-28T10:31:44Z</time>
      </trkpt>
      <trkpt lat="44.58573" lon="5.62192">
        <ele>1641.38</ele>
        <time>2020-10-28T10:32:00Z</time>
      </trkpt>
      <trkpt lat="44.58574" lon="5.62195">
        <ele>1641.704</ele>
        <time>2020-10-28T10:32:02Z</time>
      </trkpt>
      <trkpt lat="44.58577" lon="5.62213">
        <ele>1644.887</ele>
        <time>2020-10-28T10:32:19Z</time>
      </trkpt>
      <trkpt lat="44.58575" lon="5.6223">
        <ele>1648.569</ele>
        <time>2020-10-28T10:32:38Z</time>
      </trkpt>
      <trkpt lat="44.58573" lon="5.62243">
        <ele>1651.327</ele>
        <time>2020-10-28T10:32:55Z</time>
      </trkpt>
      <trkpt lat="44.58576" lon="5.62256">
        <ele>1654.132</ele>
        <time>2020-10-28T10:33:13Z</time>
      </trkpt>
      <trkpt lat="44.58579" lon="5.62267">
        <ele>1656.325</ele>
        <time>2020-10-28T10:33:33Z</time>
      </trkpt>
      <trkpt lat="44.58582" lon="5.62278">
        <ele>1658.107</ele>
        <time>2020-10-28T10:33:54Z</time>
      </trkpt>
      <trkpt lat="44.58579" lon="5.62287">
        <ele>1659.534</ele>
        <time>2020-10-28T10:34:15Z</time>
      </trkpt>
      <trkpt lat="44.5858" lon="5.62296">
        <ele>1660.828</ele>
        <time>2020-10-28T10:34:33Z</time>
      </trkpt>
      <trkpt lat="44.58578" lon="5.62305">
        <ele>1662.483</ele>
        <time>2020-10-28T10:34:50Z</time>
      </trkpt>
      <trkpt lat="44.58574" lon="5.62313">
        <ele>1664.327</ele>
        <time>2020-10-28T10:35:11Z</time>
      </trkpt>
      <trkpt lat="44.58575" lon="5.62321">
        <ele>1665.441</ele>
        <time>2020-10-28T10:35:31Z</time>
      </trkpt>
      <trkpt lat="44.58572" lon="5.62333">
        <ele>1668.191</ele>
        <time>2020-10-28T10:35:51Z</time>
      </trkpt>
      <trkpt lat="44.58571" lon="5.62341">
        <ele>1669.707</ele>
        <time>2020-10-28T10:36:08Z</time>
      </trkpt>
      <trkpt lat="44.58571" lon="5.62357">
        <ele>1672.373</ele>
        <time>2020-10-28T10:36:28Z</time>
      </trkpt>
      <trkpt lat="44.58569" lon="5.62368">
        <ele>1674.573</ele>
        <time>2020-10-28T10:36:47Z</time>
      </trkpt>
      <trkpt lat="44.58567" lon="5.62378">
        <ele>1676.632</ele>
        <time>2020-10-28T10:37:04Z</time>
      </trkpt>
      <trkpt lat="44.58568" lon="5.62394">
        <ele>1678.491</ele>
        <time>2020-10-28T10:37:26Z</time>
      </trkpt>
      <trkpt lat="44.5857" lon="5.6241">
        <ele>1680.552</ele>
        <time>2020-10-28T10:37:42Z</time>
      </trkpt>
      <trkpt lat="44.5857" lon="5.62415">
        <ele>1681.115</ele>
        <time>2020-10-28T10:37:45Z</time>
      </trkpt>
      <trkpt lat="44.58572" lon="5.62427">
        <ele>1681.67</ele>
        <time>2020-10-28T10:37:54Z</time>
      </trkpt>
      <trkpt lat="44.58576" lon="5.6245">
        <ele>1683.232</ele>
        <time>2020-10-28T10:38:16Z</time>
      </trkpt>
      <trkpt lat="44.58578" lon="5.62471">
        <ele>1686.328</ele>
        <time>2020-10-28T10:38:33Z</time>
      </trkpt>
      <trkpt lat="44.58581" lon="5.62483">
        <ele>1687.528</ele>
        <time>2020-10-28T10:38:50Z</time>
      </trkpt>
      <trkpt lat="44.58583" lon="5.62493">
        <ele>1688.36</ele>
        <time>2020-10-28T10:39:07Z</time>
      </trkpt>
      <trkpt lat="44.58583" lon="5.62492">
        <ele>1688.374</ele>
        <time>2020-10-28T10:39:25Z</time>
      </trkpt>
      <trkpt lat="44.58582" lon="5.62496">
        <ele>1688.451</ele>
        <time>2020-10-28T10:39:43Z</time>
      </trkpt>
      <trkpt lat="44.58582" lon="5.6249">
        <ele>1688.166</ele>
        <time>2020-10-28T10:40:01Z</time>
      </trkpt>
      <trkpt lat="44.58581" lon="5.62494">
        <ele>1688.216</ele>
        <time>2020-10-28T10:40:19Z</time>
      </trkpt>
      <trkpt lat="44.58581" lon="5.62496">
        <ele>1688.333</ele>
        <time>2020-10-28T10:40:36Z</time>
      </trkpt>
      <trkpt lat="44.58581" lon="5.62497">
        <ele>1688.306</ele>
        <time>2020-10-28T10:40:52Z</time>
      </trkpt>
      <trkpt lat="44.5858" lon="5.62496">
        <ele>1688.135</ele>
        <time>2020-10-28T10:41:10Z</time>
      </trkpt>
      <trkpt lat="44.5858" lon="5.62492">
        <ele>1687.943</ele>
        <time>2020-10-28T10:41:29Z</time>
      </trkpt>
      <trkpt lat="44.58581" lon="5.62491">
        <ele>1687.977</ele>
        <time>2020-10-28T10:41:45Z</time>
      </trkpt>
      <trkpt lat="44.58582" lon="5.62494">
        <ele>1688.289</ele>
        <time>2020-10-28T10:42:11Z</time>
      </trkpt>
      <trkpt lat="44.58582" lon="5.62497">
        <ele>1688.545</ele>
        <time>2020-10-28T10:42:32Z</time>
      </trkpt>
      <trkpt lat="44.58582" lon="5.62498">
        <ele>1688.576</ele>
        <time>2020-10-28T10:43:07Z</time>
      </trkpt>
      <trkpt lat="44.58581" lon="5.62493">
        <ele>1688.208</ele>
        <time>2020-10-28T10:43:32Z</time>
      </trkpt>
      <trkpt lat="44.58584" lon="5.62493">
        <ele>1688.118</ele>
        <time>2020-10-28T10:43:57Z</time>
      </trkpt>
      <trkpt lat="44.58582" lon="5.6249">
        <ele>1688.104</ele>
        <time>2020-10-28T10:44:16Z</time>
      </trkpt>
      <trkpt lat="44.58582" lon="5.62488">
        <ele>1687.98</ele>
        <time>2020-10-28T10:44:43Z</time>
      </trkpt>
      <trkpt lat="44.58585" lon="5.62497">
        <ele>1687.728</ele>
        <time>2020-10-28T10:45:15Z</time>
      </trkpt>
      <trkpt lat="44.58582" lon="5.62491">
        <ele>1688.108</ele>
        <time>2020-10-28T10:45:35Z</time>
      </trkpt>
      <trkpt lat="44.5858" lon="5.62475">
        <ele>1686.825</ele>
        <time>2020-10-28T10:45:49Z</time>
      </trkpt>
      <trkpt lat="44.58578" lon="5.62467">
        <ele>1685.751</ele>
        <time>2020-10-28T10:45:54Z</time>
      </trkpt>
      <trkpt lat="44.58577" lon="5.62446">
        <ele>1682.659</ele>
        <time>2020-10-28T10:46:09Z</time>
      </trkpt>
      <trkpt lat="44.58576" lon="5.62437">
        <ele>1681.991</ele>
        <time>2020-10-28T10:46:16Z</time>
      </trkpt>
      <trkpt lat="44.58571" lon="5.62415">
        <ele>1681.054</ele>
        <time>2020-10-28T10:46:33Z</time>
      </trkpt>
      <trkpt lat="44.58568" lon="5.62397">
        <ele>1679.076</ele>
        <time>2020-10-28T10:46:48Z</time>
      </trkpt>
      <trkpt lat="44.58566" lon="5.62386">
        <ele>1677.935</ele>
        <time>2020-10-28T10:47:04Z</time>
      </trkpt>
      <trkpt lat="44.58567" lon="5.62377">
        <ele>1676.561</ele>
        <time>2020-10-28T10:47:24Z</time>
      </trkpt>
      <trkpt lat="44.58569" lon="5.62365">
        <ele>1674.11</ele>
        <time>2020-10-28T10:47:40Z</time>
      </trkpt>
      <trkpt lat="44.58571" lon="5.62345">
        <ele>1670.528</ele>
        <time>2020-10-28T10:47:59Z</time>
      </trkpt>
      <trkpt lat="44.58572" lon="5.62331">
        <ele>1667.742</ele>
        <time>2020-10-28T10:48:14Z</time>
      </trkpt>
      <trkpt lat="44.58572" lon="5.62326">
        <ele>1666.969</ele>
        <time>2020-10-28T10:48:23Z</time>
      </trkpt>
      <trkpt lat="44.58574" lon="5.62317">
        <ele>1664.978</ele>
        <time>2020-10-28T10:48:41Z</time>
      </trkpt>
      <trkpt lat="44.58579" lon="5.62308">
        <ele>1662.773</ele>
        <time>2020-10-28T10:48:55Z</time>
      </trkpt>
      <trkpt lat="44.58581" lon="5.62297">
        <ele>1661.038</ele>
        <time>2020-10-28T10:49:12Z</time>
      </trkpt>
      <trkpt lat="44.58582" lon="5.62293">
        <ele>1660.326</ele>
        <time>2020-10-28T10:49:20Z</time>
      </trkpt>
      <trkpt lat="44.58581" lon="5.62282">
        <ele>1658.653</ele>
        <time>2020-10-28T10:49:37Z</time>
      </trkpt>
      <trkpt lat="44.58583" lon="5.62275">
        <ele>1657.651</ele>
        <time>2020-10-28T10:49:46Z</time>
      </trkpt>
      <trkpt lat="44.58581" lon="5.62264">
        <ele>1655.842</ele>
        <time>2020-10-28T10:50:00Z</time>
      </trkpt>
      <trkpt lat="44.58579" lon="5.62253">
        <ele>1654.056</ele>
        <time>2020-10-28T10:50:16Z</time>
      </trkpt>
      <trkpt lat="44.58579" lon="5.62239">
        <ele>1650.946</ele>
        <time>2020-10-28T10:50:31Z</time>
      </trkpt>
      <trkpt lat="44.58578" lon="5.62225">
        <ele>1647.556</ele>
        <time>2020-10-28T10:50:45Z</time>
      </trkpt>
      <trkpt lat="44.58579" lon="5.62224">
        <ele>1647.291</ele>
        <time>2020-10-28T10:50:46Z</time>
      </trkpt>
      <trkpt lat="44.58577" lon="5.62214">
        <ele>1645.142</ele>
        <time>2020-10-28T10:50:56Z</time>
      </trkpt>
      <trkpt lat="44.58574" lon="5.62198">
        <ele>1642.428</ele>
        <time>2020-10-28T10:51:09Z</time>
      </trkpt>
      <trkpt lat="44.58562" lon="5.62183">
        <ele>1642.89</ele>
        <time>2020-10-28T10:51:24Z</time>
      </trkpt>
      <trkpt lat="44.58558" lon="5.62179">
        <ele>1643.614</ele>
        <time>2020-10-28T10:51:28Z</time>
      </trkpt>
      <trkpt lat="44.58555" lon="5.62176">
        <ele>1644.318</ele>
        <time>2020-10-28T10:51:31Z</time>
      </trkpt>
      <trkpt lat="44.58544" lon="5.6217">
        <ele>1644.267</ele>
        <time>2020-10-28T10:51:42Z</time>
      </trkpt>
      <trkpt lat="44.58542" lon="5.62168">
        <ele>1644.397</ele>
        <time>2020-10-28T10:51:44Z</time>
      </trkpt>
      <trkpt lat="44.58526" lon="5.62159">
        <ele>1645.697</ele>
        <time>2020-10-28T10:52:03Z</time>
      </trkpt>
      <trkpt lat="44.5851" lon="5.6215">
        <ele>1645.31</ele>
        <time>2020-10-28T10:52:19Z</time>
      </trkpt>
      <trkpt lat="44.58508" lon="5.62149">
        <ele>1645.38</ele>
        <time>2020-10-28T10:52:21Z</time>
      </trkpt>
      <trkpt lat="44.58501" lon="5.62145">
        <ele>1645.925</ele>
        <time>2020-10-28T10:52:29Z</time>
      </trkpt>
      <trkpt lat="44.58498" lon="5.62144">
        <ele>1645.763</ele>
        <time>2020-10-28T10:52:32Z</time>
      </trkpt>
      <trkpt lat="44.58486" lon="5.62139">
        <ele>1645.584</ele>
        <time>2020-10-28T10:52:46Z</time>
      </trkpt>
      <trkpt lat="44.58475" lon="5.62131">
        <ele>1646.326</ele>
        <time>2020-10-28T10:53:06Z</time>
      </trkpt>
      <trkpt lat="44.58465" lon="5.62124">
        <ele>1646.25</ele>
        <time>2020-10-28T10:53:24Z</time>
      </trkpt>
      <trkpt lat="44.5845" lon="5.62111">
        <ele>1645.878</ele>
        <time>2020-10-28T10:53:46Z</time>
      </trkpt>
      <trkpt lat="44.5844" lon="5.62098">
        <ele>1645.46</ele>
        <time>2020-10-28T10:54:09Z</time>
      </trkpt>
      <trkpt lat="44.58435" lon="5.6209">
        <ele>1645.153</ele>
        <time>2020-10-28T10:54:29Z</time>
      </trkpt>
      <trkpt lat="44.58428" lon="5.62077">
        <ele>1644.742</ele>
        <time>2020-10-28T10:54:47Z</time>
      </trkpt>
      <trkpt lat="44.58422" lon="5.62063">
        <ele>1644.719</ele>
        <time>2020-10-28T10:55:08Z</time>
      </trkpt>
      <trkpt lat="44.58414" lon="5.62047">
        <ele>1644.19</ele>
        <time>2020-10-28T10:55:30Z</time>
      </trkpt>
      <trkpt lat="44.58408" lon="5.62033">
        <ele>1643.28</ele>
        <time>2020-10-28T10:55:52Z</time>
      </trkpt>
      <trkpt lat="44.58403" lon="5.62018">
        <ele>1641.539</ele>
        <time>2020-10-28T10:56:12Z</time>
      </trkpt>
      <trkpt lat="44.58402" lon="5.62">
        <ele>1640.668</ele>
        <time>2020-10-28T10:56:32Z</time>
      </trkpt>
      <trkpt lat="44.58402" lon="5.61985">
        <ele>1638.02</ele>
        <time>2020-10-28T10:56:51Z</time>
      </trkpt>
      <trkpt lat="44.58402" lon="5.61977">
        <ele>1636.705</ele>
        <time>2020-10-28T10:57:04Z</time>
      </trkpt>
      <trkpt lat="44.58403" lon="5.61967">
        <ele>1634.349</ele>
        <time>2020-10-28T10:57:20Z</time>
      </trkpt>
      <trkpt lat="44.58402" lon="5.61958">
        <ele>1630.951</ele>
        <time>2020-10-28T10:57:33Z</time>
      </trkpt>
      <trkpt lat="44.58401" lon="5.61948">
        <ele>1627.617</ele>
        <time>2020-10-28T10:57:47Z</time>
      </trkpt>
      <trkpt lat="44.58401" lon="5.61948">
        <ele>1627.407</ele>
        <time>2020-10-28T10:57:48Z</time>
      </trkpt>
      <trkpt lat="44.58403" lon="5.61937">
        <ele>1623.97</ele>
        <time>2020-10-28T10:58:02Z</time>
      </trkpt>
      <trkpt lat="44.58403" lon="5.61937">
        <ele>1623.752</ele>
        <time>2020-10-28T10:58:03Z</time>
      </trkpt>
      <trkpt lat="44.58403" lon="5.61928">
        <ele>1620.678</ele>
        <time>2020-10-28T10:58:16Z</time>
      </trkpt>
      <trkpt lat="44.584" lon="5.61917">
        <ele>1616.608</ele>
        <time>2020-10-28T10:58:32Z</time>
      </trkpt>
      <trkpt lat="44.58401" lon="5.61916">
        <ele>1616.355</ele>
        <time>2020-10-28T10:58:33Z</time>
      </trkpt>
      <trkpt lat="44.58404" lon="5.61902">
        <ele>1613.342</ele>
        <time>2020-10-28T10:58:52Z</time>
      </trkpt>
      <trkpt lat="44.58404" lon="5.61896">
        <ele>1612.172</ele>
        <time>2020-10-28T10:58:58Z</time>
      </trkpt>
      <trkpt lat="44.58402" lon="5.61887">
        <ele>1610.307</ele>
        <time>2020-10-28T10:59:08Z</time>
      </trkpt>
      <trkpt lat="44.58399" lon="5.61881">
        <ele>1609.906</ele>
        <time>2020-10-28T10:59:14Z</time>
      </trkpt>
      <trkpt lat="44.58399" lon="5.61879">
        <ele>1609.764</ele>
        <time>2020-10-28T10:59:16Z</time>
      </trkpt>
      <trkpt lat="44.58399" lon="5.61878">
        <ele>1609.697</ele>
        <time>2020-10-28T10:59:17Z</time>
      </trkpt>
      <trkpt lat="44.58396" lon="5.61863">
        <ele>1608.817</ele>
        <time>2020-10-28T10:59:30Z</time>
      </trkpt>
      <trkpt lat="44.58395" lon="5.61857">
        <ele>1608.593</ele>
        <time>2020-10-28T10:59:34Z</time>
      </trkpt>
      <trkpt lat="44.58392" lon="5.61841">
        <ele>1608.037</ele>
        <time>2020-10-28T10:59:49Z</time>
      </trkpt>
      <trkpt lat="44.58385" lon="5.6182">
        <ele>1606.437</ele>
        <time>2020-10-28T11:00:05Z</time>
      </trkpt>
      <trkpt lat="44.58375" lon="5.61805">
        <ele>1604.024</ele>
        <time>2020-10-28T11:00:20Z</time>
      </trkpt>
      <trkpt lat="44.58363" lon="5.61795">
        <ele>1601.358</ele>
        <time>2020-10-28T11:00:34Z</time>
      </trkpt>
      <trkpt lat="44.58351" lon="5.61787">
        <ele>1598.381</ele>
        <time>2020-10-28T11:00:47Z</time>
      </trkpt>
      <trkpt lat="44.58341" lon="5.61779">
        <ele>1596.841</ele>
        <time>2020-10-28T11:01:02Z</time>
      </trkpt>
      <trkpt lat="44.58336" lon="5.61774">
        <ele>1594.706</ele>
        <time>2020-10-28T11:01:17Z</time>
      </trkpt>
      <trkpt lat="44.58324" lon="5.61772">
        <ele>1591.442</ele>
        <time>2020-10-28T11:01:33Z</time>
      </trkpt>
      <trkpt lat="44.58309" lon="5.6177">
        <ele>1587.88</ele>
        <time>2020-10-28T11:01:51Z</time>
      </trkpt>
      <trkpt lat="44.58297" lon="5.61767">
        <ele>1584.864</ele>
        <time>2020-10-28T11:02:07Z</time>
      </trkpt>
      <trkpt lat="44.58284" lon="5.61763">
        <ele>1581.444</ele>
        <time>2020-10-28T11:02:24Z</time>
      </trkpt>
      <trkpt lat="44.58272" lon="5.6176">
        <ele>1578.527</ele>
        <time>2020-10-28T11:02:42Z</time>
      </trkpt>
      <trkpt lat="44.58258" lon="5.61758">
        <ele>1575.492</ele>
        <time>2020-10-28T11:03:00Z</time>
      </trkpt>
      <trkpt lat="44.5825" lon="5.61753">
        <ele>1574.447</ele>
        <time>2020-10-28T11:03:14Z</time>
      </trkpt>
      <trkpt lat="44.58244" lon="5.61747">
        <ele>1573.27</ele>
        <time>2020-10-28T11:03:21Z</time>
      </trkpt>
      <trkpt lat="44.58227" lon="5.61733">
        <ele>1569.928</ele>
        <time>2020-10-28T11:03:39Z</time>
      </trkpt>
      <trkpt lat="44.58211" lon="5.61721">
        <ele>1569.779</ele>
        <time>2020-10-28T11:03:55Z</time>
      </trkpt>
      <trkpt lat="44.58208" lon="5.61719">
        <ele>1569.509</ele>
        <time>2020-10-28T11:03:58Z</time>
      </trkpt>
      <trkpt lat="44.58196" lon="5.6171">
        <ele>1569.402</ele>
        <time>2020-10-28T11:04:11Z</time>
      </trkpt>
      <trkpt lat="44.58182" lon="5.61704">
        <ele>1569.915</ele>
        <time>2020-10-28T11:04:26Z</time>
      </trkpt>
      <trkpt lat="44.5818" lon="5.61703">
        <ele>1570.033</ele>
        <time>2020-10-28T11:04:28Z</time>
      </trkpt>
      <trkpt lat="44.58168" lon="5.61699">
        <ele>1571.235</ele>
        <time>2020-10-28T11:04:42Z</time>
      </trkpt>
      <trkpt lat="44.58156" lon="5.61695">
        <ele>1573.464</ele>
        <time>2020-10-28T11:04:57Z</time>
      </trkpt>
      <trkpt lat="44.58147" lon="5.61692">
        <ele>1574.502</ele>
        <time>2020-10-28T11:05:15Z</time>
      </trkpt>
      <trkpt lat="44.58135" lon="5.61686">
        <ele>1575.861</ele>
        <time>2020-10-28T11:05:28Z</time>
      </trkpt>
      <trkpt lat="44.58124" lon="5.6168">
        <ele>1577.758</ele>
        <time>2020-10-28T11:05:45Z</time>
      </trkpt>
      <trkpt lat="44.58113" lon="5.61673">
        <ele>1580.541</ele>
        <time>2020-10-28T11:06:04Z</time>
      </trkpt>
      <trkpt lat="44.58108" lon="5.6167">
        <ele>1582.359</ele>
        <time>2020-10-28T11:06:21Z</time>
      </trkpt>
      <trkpt lat="44.58101" lon="5.61669">
        <ele>1584.547</ele>
        <time>2020-10-28T11:06:39Z</time>
      </trkpt>
      <trkpt lat="44.58094" lon="5.61669">
        <ele>1586.629</ele>
        <time>2020-10-28T11:06:56Z</time>
      </trkpt>
      <trkpt lat="44.58085" lon="5.6166">
        <ele>1587.651</ele>
        <time>2020-10-28T11:07:17Z</time>
      </trkpt>
      <trkpt lat="44.5808" lon="5.61659">
        <ele>1588.806</ele>
        <time>2020-10-28T11:07:37Z</time>
      </trkpt>
      <trkpt lat="44.58073" lon="5.61656">
        <ele>1590.583</ele>
        <time>2020-10-28T11:07:52Z</time>
      </trkpt>
      <trkpt lat="44.58064" lon="5.6165">
        <ele>1593.22</ele>
        <time>2020-10-28T11:08:12Z</time>
      </trkpt>
      <trkpt lat="44.58055" lon="5.61644">
        <ele>1596.98</ele>
        <time>2020-10-28T11:08:30Z</time>
      </trkpt>
      <trkpt lat="44.58045" lon="5.61639">
        <ele>1599.932</ele>
        <time>2020-10-28T11:08:48Z</time>
      </trkpt>
      <trkpt lat="44.58036" lon="5.61634">
        <ele>1601.117</ele>
        <time>2020-10-28T11:09:03Z</time>
      </trkpt>
      <trkpt lat="44.58024" lon="5.61631">
        <ele>1603.864</ele>
        <time>2020-10-28T11:09:21Z</time>
      </trkpt>
      <trkpt lat="44.58016" lon="5.61628">
        <ele>1605.367</ele>
        <time>2020-10-28T11:09:31Z</time>
      </trkpt>
      <trkpt lat="44.58005" lon="5.61625">
        <ele>1608.457</ele>
        <time>2020-10-28T11:09:50Z</time>
      </trkpt>
      <trkpt lat="44.57993" lon="5.61623">
        <ele>1610.896</ele>
        <time>2020-10-28T11:10:08Z</time>
      </trkpt>
      <trkpt lat="44.57988" lon="5.61611">
        <ele>1612.975</ele>
        <time>2020-10-28T11:10:23Z</time>
      </trkpt>
      <trkpt lat="44.57977" lon="5.61604">
        <ele>1613.656</ele>
        <time>2020-10-28T11:10:41Z</time>
      </trkpt>
      <trkpt lat="44.57969" lon="5.61598">
        <ele>1614.485</ele>
        <time>2020-10-28T11:11:00Z</time>
      </trkpt>
      <trkpt lat="44.57963" lon="5.61593">
        <ele>1614.613</ele>
        <time>2020-10-28T11:11:14Z</time>
      </trkpt>
      <trkpt lat="44.57961" lon="5.61593">
        <ele>1615.001</ele>
        <time>2020-10-28T11:11:34Z</time>
      </trkpt>
      <trkpt lat="44.57963" lon="5.61599">
        <ele>1615.341</ele>
        <time>2020-10-28T11:11:56Z</time>
      </trkpt>
      <trkpt lat="44.57974" lon="5.61608">
        <ele>1615.856</ele>
        <time>2020-10-28T11:12:17Z</time>
      </trkpt>
      <trkpt lat="44.57979" lon="5.61611">
        <ele>1615.401</ele>
        <time>2020-10-28T11:12:25Z</time>
      </trkpt>
      <trkpt lat="44.57991" lon="5.61622">
        <ele>1611.273</ele>
        <time>2020-10-28T11:12:43Z</time>
      </trkpt>
      <trkpt lat="44.58005" lon="5.6163">
        <ele>1608.585</ele>
        <time>2020-10-28T11:13:02Z</time>
      </trkpt>
      <trkpt lat="44.58022" lon="5.61637">
        <ele>1605.612</ele>
        <time>2020-10-28T11:13:24Z</time>
      </trkpt>
      <trkpt lat="44.58034" lon="5.61642">
        <ele>1602.648</ele>
        <time>2020-10-28T11:13:41Z</time>
      </trkpt>
      <trkpt lat="44.58045" lon="5.61652">
        <ele>1598.826</ele>
        <time>2020-10-28T11:13:59Z</time>
      </trkpt>
      <trkpt lat="44.58054" lon="5.61658">
        <ele>1596.678</ele>
        <time>2020-10-28T11:14:15Z</time>
      </trkpt>
      <trkpt lat="44.58066" lon="5.61665">
        <ele>1593.605</ele>
        <time>2020-10-28T11:14:35Z</time>
      </trkpt>
      <trkpt lat="44.58073" lon="5.61668">
        <ele>1591.957</ele>
        <time>2020-10-28T11:14:47Z</time>
      </trkpt>
      <trkpt lat="44.58086" lon="5.61675">
        <ele>1587.919</ele>
        <time>2020-10-28T11:15:06Z</time>
      </trkpt>
      <trkpt lat="44.58093" lon="5.61681">
        <ele>1584.792</ele>
        <time>2020-10-28T11:15:23Z</time>
      </trkpt>
      <trkpt lat="44.58101" lon="5.61688">
        <ele>1581.567</ele>
        <time>2020-10-28T11:15:39Z</time>
      </trkpt>
      <trkpt lat="44.58111" lon="5.6169">
        <ele>1578.671</ele>
        <time>2020-10-28T11:15:56Z</time>
      </trkpt>
      <trkpt lat="44.58121" lon="5.61696">
        <ele>1576.958</ele>
        <time>2020-10-28T11:16:12Z</time>
      </trkpt>
      <trkpt lat="44.58134" lon="5.61699">
        <ele>1575.254</ele>
        <time>2020-10-28T11:16:29Z</time>
      </trkpt>
      <trkpt lat="44.58135" lon="5.61699">
        <ele>1575.101</ele>
        <time>2020-10-28T11:16:30Z</time>
      </trkpt>
      <trkpt lat="44.58147" lon="5.61702">
        <ele>1573.295</ele>
        <time>2020-10-28T11:16:45Z</time>
      </trkpt>
      <trkpt lat="44.58149" lon="5.61703">
        <ele>1572.679</ele>
        <time>2020-10-28T11:16:48Z</time>
      </trkpt>
      <trkpt lat="44.58156" lon="5.61715">
        <ele>1569.788</ele>
        <time>2020-10-28T11:17:05Z</time>
      </trkpt>
      <trkpt lat="44.58167" lon="5.61728">
        <ele>1566.703</ele>
        <time>2020-10-28T11:17:25Z</time>
      </trkpt>
      <trkpt lat="44.58176" lon="5.61737">
        <ele>1564.983</ele>
        <time>2020-10-28T11:17:40Z</time>
      </trkpt>
      <trkpt lat="44.58187" lon="5.61752">
        <ele>1562.265</ele>
        <time>2020-10-28T11:17:56Z</time>
      </trkpt>
      <trkpt lat="44.58187" lon="5.6176">
        <ele>1559.201</ele>
        <time>2020-10-28T11:18:15Z</time>
      </trkpt>
      <trkpt lat="44.58183" lon="5.61766">
        <ele>1556.57</ele>
        <time>2020-10-28T11:18:32Z</time>
      </trkpt>
      <trkpt lat="44.58176" lon="5.61767">
        <ele>1555.087</ele>
        <time>2020-10-28T11:18:50Z</time>
      </trkpt>
      <trkpt lat="44.58171" lon="5.61767">
        <ele>1554.787</ele>
        <time>2020-10-28T11:18:56Z</time>
      </trkpt>
      <trkpt lat="44.58168" lon="5.61767">
        <ele>1554.433</ele>
        <time>2020-10-28T11:18:59Z</time>
      </trkpt>
      <trkpt lat="44.58159" lon="5.61767">
        <ele>1554.884</ele>
        <time>2020-10-28T11:19:08Z</time>
      </trkpt>
      <trkpt lat="44.58157" lon="5.61767">
        <ele>1555.09</ele>
        <time>2020-10-28T11:19:10Z</time>
      </trkpt>
      <trkpt lat="44.58155" lon="5.61767">
        <ele>1555.2</ele>
        <time>2020-10-28T11:19:12Z</time>
      </trkpt>
      <trkpt lat="44.5814" lon="5.61768">
        <ele>1556.168</ele>
        <time>2020-10-28T11:19:29Z</time>
      </trkpt>
      <trkpt lat="44.5812" lon="5.61779">
        <ele>1551.848</ele>
        <time>2020-10-28T11:19:52Z</time>
      </trkpt>
      <trkpt lat="44.58109" lon="5.61794">
        <ele>1547.27</ele>
        <time>2020-10-28T11:20:09Z</time>
      </trkpt>
      <trkpt lat="44.58103" lon="5.61804">
        <ele>1544.914</ele>
        <time>2020-10-28T11:20:22Z</time>
      </trkpt>
      <trkpt lat="44.58092" lon="5.61827">
        <ele>1540.11</ele>
        <time>2020-10-28T11:20:40Z</time>
      </trkpt>
      <trkpt lat="44.58083" lon="5.61848">
        <ele>1535.624</ele>
        <time>2020-10-28T11:20:57Z</time>
      </trkpt>
      <trkpt lat="44.58077" lon="5.61863">
        <ele>1533.457</ele>
        <time>2020-10-28T11:21:13Z</time>
      </trkpt>
      <trkpt lat="44.58074" lon="5.61876">
        <ele>1530.51</ele>
        <time>2020-10-28T11:21:34Z</time>
      </trkpt>
      <trkpt lat="44.58069" lon="5.61891">
        <ele>1527.733</ele>
        <time>2020-10-28T11:21:48Z</time>
      </trkpt>
      <trkpt lat="44.58062" lon="5.61898">
        <ele>1527.712</ele>
        <time>2020-10-28T11:21:56Z</time>
      </trkpt>
      <trkpt lat="44.58045" lon="5.61906">
        <ele>1528.807</ele>
        <time>2020-10-28T11:22:13Z</time>
      </trkpt>
      <trkpt lat="44.58035" lon="5.61904">
        <ele>1530.154</ele>
        <time>2020-10-28T11:22:34Z</time>
      </trkpt>
      <trkpt lat="44.58021" lon="5.619">
        <ele>1531.173</ele>
        <time>2020-10-28T11:22:49Z</time>
      </trkpt>
      <trkpt lat="44.58" lon="5.6189">
        <ele>1532.647</ele>
        <time>2020-10-28T11:23:11Z</time>
      </trkpt>
      <trkpt lat="44.57991" lon="5.61885">
        <ele>1533.959</ele>
        <time>2020-10-28T11:23:19Z</time>
      </trkpt>
      <trkpt lat="44.57983" lon="5.61881">
        <ele>1535.274</ele>
        <time>2020-10-28T11:23:26Z</time>
      </trkpt>
      <trkpt lat="44.57969" lon="5.61877">
        <ele>1536.707</ele>
        <time>2020-10-28T11:23:42Z</time>
      </trkpt>
      <trkpt lat="44.5795" lon="5.61871">
        <ele>1537.442</ele>
        <time>2020-10-28T11:23:59Z</time>
      </trkpt>
      <trkpt lat="44.57935" lon="5.61869">
        <ele>1536.712</ele>
        <time>2020-10-28T11:24:15Z</time>
      </trkpt>
      <trkpt lat="44.57918" lon="5.61864">
        <ele>1536.484</ele>
        <time>2020-10-28T11:24:29Z</time>
      </trkpt>
      <trkpt lat="44.57902" lon="5.61862">
        <ele>1534.578</ele>
        <time>2020-10-28T11:24:46Z</time>
      </trkpt>
      <trkpt lat="44.57885" lon="5.61848">
        <ele>1536.844</ele>
        <time>2020-10-28T11:25:02Z</time>
      </trkpt>
      <trkpt lat="44.57867" lon="5.61839">
        <ele>1537.38</ele>
        <time>2020-10-28T11:25:18Z</time>
      </trkpt>
      <trkpt lat="44.57855" lon="5.61833">
        <ele>1536.865</ele>
        <time>2020-10-28T11:25:33Z</time>
      </trkpt>
      <trkpt lat="44.57846" lon="5.61828">
        <ele>1535.766</ele>
        <time>2020-10-28T11:25:42Z</time>
      </trkpt>
      <trkpt lat="44.57843" lon="5.61825">
        <ele>1535.537</ele>
        <time>2020-10-28T11:25:45Z</time>
      </trkpt>
      <trkpt lat="44.57824" lon="5.61811">
        <ele>1533.435</ele>
        <time>2020-10-28T11:26:03Z</time>
      </trkpt>
      <trkpt lat="44.57809" lon="5.61795">
        <ele>1532.579</ele>
        <time>2020-10-28T11:26:20Z</time>
      </trkpt>
      <trkpt lat="44.57795" lon="5.61787">
        <ele>1530.605</ele>
        <time>2020-10-28T11:26:34Z</time>
      </trkpt>
      <trkpt lat="44.57791" lon="5.61785">
        <ele>1530.074</ele>
        <time>2020-10-28T11:26:37Z</time>
      </trkpt>
      <trkpt lat="44.57779" lon="5.61777">
        <ele>1528.338</ele>
        <time>2020-10-28T11:26:49Z</time>
      </trkpt>
      <trkpt lat="44.57755" lon="5.6177">
        <ele>1526.436</ele>
        <time>2020-10-28T11:27:08Z</time>
      </trkpt>
      <trkpt lat="44.57735" lon="5.61762">
        <ele>1525.015</ele>
        <time>2020-10-28T11:27:27Z</time>
      </trkpt>
      <trkpt lat="44.57716" lon="5.61754">
        <ele>1523.81</ele>
        <time>2020-10-28T11:27:46Z</time>
      </trkpt>
      <trkpt lat="44.57698" lon="5.61746">
        <ele>1522.767</ele>
        <time>2020-10-28T11:28:05Z</time>
      </trkpt>
      <trkpt lat="44.57684" lon="5.61742">
        <ele>1521.065</ele>
        <time>2020-10-28T11:28:21Z</time>
      </trkpt>
      <trkpt lat="44.57669" lon="5.61739">
        <ele>1519.054</ele>
        <time>2020-10-28T11:28:38Z</time>
      </trkpt>
      <trkpt lat="44.57654" lon="5.61735">
        <ele>1517.692</ele>
        <time>2020-10-28T11:28:59Z</time>
      </trkpt>
      <trkpt lat="44.57636" lon="5.6173">
        <ele>1516.451</ele>
        <time>2020-10-28T11:29:19Z</time>
      </trkpt>
      <trkpt lat="44.57617" lon="5.61718">
        <ele>1516.776</ele>
        <time>2020-10-28T11:29:37Z</time>
      </trkpt>
      <trkpt lat="44.57595" lon="5.61714">
        <ele>1513.8</ele>
        <time>2020-10-28T11:29:55Z</time>
      </trkpt>
      <trkpt lat="44.57575" lon="5.61711">
        <ele>1509.867</ele>
        <time>2020-10-28T11:30:13Z</time>
      </trkpt>
      <trkpt lat="44.57564" lon="5.61707">
        <ele>1507.602</ele>
        <time>2020-10-28T11:30:30Z</time>
      </trkpt>
      <trkpt lat="44.57544" lon="5.61693">
        <ele>1505.196</ele>
        <time>2020-10-28T11:30:51Z</time>
      </trkpt>
      <trkpt lat="44.57536" lon="5.61687">
        <ele>1503.945</ele>
        <time>2020-10-28T11:30:57Z</time>
      </trkpt>
      <trkpt lat="44.57525" lon="5.61677">
        <ele>1502.416</ele>
        <time>2020-10-28T11:31:10Z</time>
      </trkpt>
      <trkpt lat="44.57515" lon="5.61669">
        <ele>1501.93</ele>
        <time>2020-10-28T11:31:19Z</time>
      </trkpt>
      <trkpt lat="44.57502" lon="5.61649">
        <ele>1501.09</ele>
        <time>2020-10-28T11:31:38Z</time>
      </trkpt>
      <trkpt lat="44.57493" lon="5.61652">
        <ele>1498.981</ele>
        <time>2020-10-28T11:31:55Z</time>
      </trkpt>
      <trkpt lat="44.57493" lon="5.6167">
        <ele>1498.107</ele>
        <time>2020-10-28T11:32:11Z</time>
      </trkpt>
      <trkpt lat="44.57497" lon="5.6168">
        <ele>1497.781</ele>
        <time>2020-10-28T11:32:29Z</time>
      </trkpt>
      <trkpt lat="44.57497" lon="5.61687">
        <ele>1496.994</ele>
        <time>2020-10-28T11:32:36Z</time>
      </trkpt>
      <trkpt lat="44.57484" lon="5.6169">
        <ele>1493.449</ele>
        <time>2020-10-28T11:32:51Z</time>
      </trkpt>
      <trkpt lat="44.57473" lon="5.61682">
        <ele>1491.995</ele>
        <time>2020-10-28T11:33:05Z</time>
      </trkpt>
      <trkpt lat="44.57452" lon="5.61665">
        <ele>1488.851</ele>
        <time>2020-10-28T11:33:27Z</time>
      </trkpt>
      <trkpt lat="44.57441" lon="5.61655">
        <ele>1486.4</ele>
        <time>2020-10-28T11:33:40Z</time>
      </trkpt>
      <trkpt lat="44.57428" lon="5.6164">
        <ele>1484.623</ele>
        <time>2020-10-28T11:33:56Z</time>
      </trkpt>
      <trkpt lat="44.57415" lon="5.61627">
        <ele>1482.302</ele>
        <time>2020-10-28T11:34:14Z</time>
      </trkpt>
      <trkpt lat="44.574" lon="5.61611">
        <ele>1478.984</ele>
        <time>2020-10-28T11:34:31Z</time>
      </trkpt>
      <trkpt lat="44.57386" lon="5.61594">
        <ele>1475.634</ele>
        <time>2020-10-28T11:34:48Z</time>
      </trkpt>
      <trkpt lat="44.57373" lon="5.61589">
        <ele>1474.951</ele>
        <time>2020-10-28T11:35:05Z</time>
      </trkpt>
      <trkpt lat="44.57355" lon="5.61597">
        <ele>1474.387</ele>
        <time>2020-10-28T11:35:25Z</time>
      </trkpt>
      <trkpt lat="44.57347" lon="5.61601">
        <ele>1474.267</ele>
        <time>2020-10-28T11:35:32Z</time>
      </trkpt>
      <trkpt lat="44.57344" lon="5.61604">
        <ele>1473.99</ele>
        <time>2020-10-28T11:35:35Z</time>
      </trkpt>
      <trkpt lat="44.57327" lon="5.61609">
        <ele>1473.37</ele>
        <time>2020-10-28T11:35:50Z</time>
      </trkpt>
      <trkpt lat="44.57316" lon="5.61614">
        <ele>1472.377</ele>
        <time>2020-10-28T11:36:01Z</time>
      </trkpt>
      <trkpt lat="44.57301" lon="5.61616">
        <ele>1471.253</ele>
        <time>2020-10-28T11:36:21Z</time>
      </trkpt>
      <trkpt lat="44.57284" lon="5.61626">
        <ele>1466.857</ele>
        <time>2020-10-28T11:36:39Z</time>
      </trkpt>
      <trkpt lat="44.57266" lon="5.61641">
        <ele>1463.056</ele>
        <time>2020-10-28T11:37:02Z</time>
      </trkpt>
      <trkpt lat="44.57255" lon="5.61653">
        <ele>1460.691</ele>
        <time>2020-10-28T11:37:20Z</time>
      </trkpt>
      <trkpt lat="44.57243" lon="5.61673">
        <ele>1458.184</ele>
        <time>2020-10-28T11:37:37Z</time>
      </trkpt>
      <trkpt lat="44.57229" lon="5.61706">
        <ele>1452.915</ele>
        <time>2020-10-28T11:37:56Z</time>
      </trkpt>
      <trkpt lat="44.57216" lon="5.61729">
        <ele>1449.966</ele>
        <time>2020-10-28T11:38:14Z</time>
      </trkpt>
      <trkpt lat="44.57217" lon="5.61743">
        <ele>1446.516</ele>
        <time>2020-10-28T11:38:29Z</time>
      </trkpt>
      <trkpt lat="44.57223" lon="5.61741">
        <ele>1445.848</ele>
        <time>2020-10-28T11:38:35Z</time>
      </trkpt>
      <trkpt lat="44.57244" lon="5.61727">
        <ele>1444.887</ele>
        <time>2020-10-28T11:38:57Z</time>
      </trkpt>
      <trkpt lat="44.57251" lon="5.61723">
        <ele>1444.433</ele>
        <time>2020-10-28T11:39:06Z</time>
      </trkpt>
      <trkpt lat="44.57266" lon="5.61718">
        <ele>1442.119</ele>
        <time>2020-10-28T11:39:23Z</time>
      </trkpt>
      <trkpt lat="44.57266" lon="5.6172">
        <ele>1441.373</ele>
        <time>2020-10-28T11:39:25Z</time>
      </trkpt>
      <trkpt lat="44.57263" lon="5.61727">
        <ele>1440.596</ele>
        <time>2020-10-28T11:39:31Z</time>
      </trkpt>
      <trkpt lat="44.57262" lon="5.61732">
        <ele>1439.954</ele>
        <time>2020-10-28T11:39:34Z</time>
      </trkpt>
      <trkpt lat="44.57247" lon="5.61752">
        <ele>1438.225</ele>
        <time>2020-10-28T11:39:53Z</time>
      </trkpt>
      <trkpt lat="44.57231" lon="5.61775">
        <ele>1435.825</ele>
        <time>2020-10-28T11:40:14Z</time>
      </trkpt>
      <trkpt lat="44.57219" lon="5.61796">
        <ele>1432.904</ele>
        <time>2020-10-28T11:40:33Z</time>
      </trkpt>
      <trkpt lat="44.57207" lon="5.61815">
        <ele>1431.284</ele>
        <time>2020-10-28T11:40:53Z</time>
      </trkpt>
      <trkpt lat="44.57196" lon="5.61831">
        <ele>1429.477</ele>
        <time>2020-10-28T11:41:10Z</time>
      </trkpt>
      <trkpt lat="44.57185" lon="5.61848">
        <ele>1427.159</ele>
        <time>2020-10-28T11:41:28Z</time>
      </trkpt>
      <trkpt lat="44.57178" lon="5.6185">
        <ele>1427.855</ele>
        <time>2020-10-28T11:41:35Z</time>
      </trkpt>
      <trkpt lat="44.57171" lon="5.61856">
        <ele>1427.522</ele>
        <time>2020-10-28T11:41:48Z</time>
      </trkpt>
      <trkpt lat="44.5718" lon="5.61858">
        <ele>1425.863</ele>
        <time>2020-10-28T11:42:04Z</time>
      </trkpt>
      <trkpt lat="44.57182" lon="5.61858">
        <ele>1425.475</ele>
        <time>2020-10-28T11:42:06Z</time>
      </trkpt>
      <trkpt lat="44.57197" lon="5.61857">
        <ele>1423.234</ele>
        <time>2020-10-28T11:42:24Z</time>
      </trkpt>
      <trkpt lat="44.57209" lon="5.61848">
        <ele>1422.558</ele>
        <time>2020-10-28T11:42:43Z</time>
      </trkpt>
      <trkpt lat="44.57226" lon="5.61841">
        <ele>1420.22</ele>
        <time>2020-10-28T11:42:59Z</time>
      </trkpt>
      <trkpt lat="44.5724" lon="5.61839">
        <ele>1419.135</ele>
        <time>2020-10-28T11:43:10Z</time>
      </trkpt>
      <trkpt lat="44.57244" lon="5.61838">
        <ele>1418.757</ele>
        <time>2020-10-28T11:43:13Z</time>
      </trkpt>
      <trkpt lat="44.57259" lon="5.61836">
        <ele>1417.853</ele>
        <time>2020-10-28T11:43:27Z</time>
      </trkpt>
      <trkpt lat="44.57281" lon="5.61833">
        <ele>1416.754</ele>
        <time>2020-10-28T11:43:48Z</time>
      </trkpt>
      <trkpt lat="44.573" lon="5.61838">
        <ele>1412.988</ele>
        <time>2020-10-28T11:44:04Z</time>
      </trkpt>
      <trkpt lat="44.57315" lon="5.61859">
        <ele>1412.066</ele>
        <time>2020-10-28T11:44:23Z</time>
      </trkpt>
      <trkpt lat="44.57317" lon="5.61863">
        <ele>1412.283</ele>
        <time>2020-10-28T11:44:26Z</time>
      </trkpt>
      <trkpt lat="44.5732" lon="5.61871">
        <ele>1412.034</ele>
        <time>2020-10-28T11:44:31Z</time>
      </trkpt>
      <trkpt lat="44.57321" lon="5.61874">
        <ele>1411.953</ele>
        <time>2020-10-28T11:44:33Z</time>
      </trkpt>
      <trkpt lat="44.5733" lon="5.61903">
        <ele>1408.745</ele>
        <time>2020-10-28T11:44:52Z</time>
      </trkpt>
      <trkpt lat="44.57351" lon="5.61918">
        <ele>1406.87</ele>
        <time>2020-10-28T11:45:12Z</time>
      </trkpt>
      <trkpt lat="44.57367" lon="5.61922">
        <ele>1406.64</ele>
        <time>2020-10-28T11:45:27Z</time>
      </trkpt>
      <trkpt lat="44.57386" lon="5.61928">
        <ele>1405.378</ele>
        <time>2020-10-28T11:45:44Z</time>
      </trkpt>
      <trkpt lat="44.57387" lon="5.61929">
        <ele>1405.239</ele>
        <time>2020-10-28T11:45:45Z</time>
      </trkpt>
      <trkpt lat="44.57401" lon="5.61947">
        <ele>1404.052</ele>
        <time>2020-10-28T11:46:01Z</time>
      </trkpt>
      <trkpt lat="44.57403" lon="5.61949">
        <ele>1403.818</ele>
        <time>2020-10-28T11:46:03Z</time>
      </trkpt>
      <trkpt lat="44.57412" lon="5.61958">
        <ele>1402.582</ele>
        <time>2020-10-28T11:46:14Z</time>
      </trkpt>
      <trkpt lat="44.57409" lon="5.61968">
        <ele>1399.624</ele>
        <time>2020-10-28T11:46:27Z</time>
      </trkpt>
      <trkpt lat="44.57401" lon="5.61971">
        <ele>1398.076</ele>
        <time>2020-10-28T11:46:37Z</time>
      </trkpt>
      <trkpt lat="44.57388" lon="5.6197">
        <ele>1397.606</ele>
        <time>2020-10-28T11:46:53Z</time>
      </trkpt>
      <trkpt lat="44.57371" lon="5.61973">
        <ele>1397.397</ele>
        <time>2020-10-28T11:47:14Z</time>
      </trkpt>
      <trkpt lat="44.57359" lon="5.61973">
        <ele>1397.515</ele>
        <time>2020-10-28T11:47:25Z</time>
      </trkpt>
      <trkpt lat="44.57354" lon="5.61982">
        <ele>1394.61</ele>
        <time>2020-10-28T11:47:34Z</time>
      </trkpt>
      <trkpt lat="44.57362" lon="5.62004">
        <ele>1391.156</ele>
        <time>2020-10-28T11:47:51Z</time>
      </trkpt>
      <trkpt lat="44.57365" lon="5.6201">
        <ele>1389.82</ele>
        <time>2020-10-28T11:47:56Z</time>
      </trkpt>
      <trkpt lat="44.57376" lon="5.62018">
        <ele>1388.271</ele>
        <time>2020-10-28T11:48:13Z</time>
      </trkpt>
      <trkpt lat="44.57393" lon="5.62027">
        <ele>1386.476</ele>
        <time>2020-10-28T11:48:33Z</time>
      </trkpt>
      <trkpt lat="44.57409" lon="5.62033">
        <ele>1383.408</ele>
        <time>2020-10-28T11:48:49Z</time>
      </trkpt>
      <trkpt lat="44.57417" lon="5.62037">
        <ele>1381.698</ele>
        <time>2020-10-28T11:48:56Z</time>
      </trkpt>
      <trkpt lat="44.57438" lon="5.62041">
        <ele>1381.559</ele>
        <time>2020-10-28T11:49:12Z</time>
      </trkpt>
      <trkpt lat="44.57449" lon="5.62043">
        <ele>1382.389</ele>
        <time>2020-10-28T11:49:20Z</time>
      </trkpt>
      <trkpt lat="44.57462" lon="5.62069">
        <ele>1381.744</ele>
        <time>2020-10-28T11:49:38Z</time>
      </trkpt>
      <trkpt lat="44.57469" lon="5.62094">
        <ele>1381.351</ele>
        <time>2020-10-28T11:49:57Z</time>
      </trkpt>
      <trkpt lat="44.5747" lon="5.62096">
        <ele>1381.379</ele>
        <time>2020-10-28T11:49:58Z</time>
      </trkpt>
      <trkpt lat="44.57475" lon="5.62114">
        <ele>1381.657</ele>
        <time>2020-10-28T11:50:11Z</time>
      </trkpt>
      <trkpt lat="44.57476" lon="5.62116">
        <ele>1381.588</ele>
        <time>2020-10-28T11:50:12Z</time>
      </trkpt>
      <trkpt lat="44.57477" lon="5.62126">
        <ele>1381.044</ele>
        <time>2020-10-28T11:50:18Z</time>
      </trkpt>
      <trkpt lat="44.57477" lon="5.62142">
        <ele>1379.755</ele>
        <time>2020-10-28T11:50:29Z</time>
      </trkpt>
      <trkpt lat="44.57482" lon="5.62162">
        <ele>1378.269</ele>
        <time>2020-10-28T11:50:41Z</time>
      </trkpt>
      <trkpt lat="44.57489" lon="5.62183">
        <ele>1373.757</ele>
        <time>2020-10-28T11:50:57Z</time>
      </trkpt>
      <trkpt lat="44.57491" lon="5.62187">
        <ele>1372.763</ele>
        <time>2020-10-28T11:51:00Z</time>
      </trkpt>
      <trkpt lat="44.57504" lon="5.62199">
        <ele>1370.027</ele>
        <time>2020-10-28T11:51:15Z</time>
      </trkpt>
      <trkpt lat="44.57517" lon="5.62205">
        <ele>1368.802</ele>
        <time>2020-10-28T11:51:29Z</time>
      </trkpt>
      <trkpt lat="44.5752" lon="5.62208">
        <ele>1368.155</ele>
        <time>2020-10-28T11:51:33Z</time>
      </trkpt>
      <trkpt lat="44.5753" lon="5.62221">
        <ele>1366.032</ele>
        <time>2020-10-28T11:51:47Z</time>
      </trkpt>
      <trkpt lat="44.57533" lon="5.62226">
        <ele>1366.332</ele>
        <time>2020-10-28T11:51:51Z</time>
      </trkpt>
      <trkpt lat="44.57538" lon="5.62244">
        <ele>1366.299</ele>
        <time>2020-10-28T11:52:04Z</time>
      </trkpt>
      <trkpt lat="44.57535" lon="5.62248">
        <ele>1364.683</ele>
        <time>2020-10-28T11:52:08Z</time>
      </trkpt>
      <trkpt lat="44.57512" lon="5.62255">
        <ele>1360.309</ele>
        <time>2020-10-28T11:52:29Z</time>
      </trkpt>
      <trkpt lat="44.57505" lon="5.62258">
        <ele>1359.368</ele>
        <time>2020-10-28T11:52:36Z</time>
      </trkpt>
      <trkpt lat="44.57501" lon="5.62263">
        <ele>1358.134</ele>
        <time>2020-10-28T11:52:42Z</time>
      </trkpt>
      <trkpt lat="44.57501" lon="5.62268">
        <ele>1357.483</ele>
        <time>2020-10-28T11:52:46Z</time>
      </trkpt>
      <trkpt lat="44.57503" lon="5.62275">
        <ele>1356.766</ele>
        <time>2020-10-28T11:52:51Z</time>
      </trkpt>
      <trkpt lat="44.57511" lon="5.62282">
        <ele>1357.029</ele>
        <time>2020-10-28T11:53:01Z</time>
      </trkpt>
      <trkpt lat="44.57514" lon="5.62284">
        <ele>1357.098</ele>
        <time>2020-10-28T11:53:04Z</time>
      </trkpt>
      <trkpt lat="44.57518" lon="5.62289">
        <ele>1356.991</ele>
        <time>2020-10-28T11:53:08Z</time>
      </trkpt>
      <trkpt lat="44.57533" lon="5.62322">
        <ele>1353.399</ele>
        <time>2020-10-28T11:53:32Z</time>
      </trkpt>
      <trkpt lat="44.57534" lon="5.62325">
        <ele>1352.871</ele>
        <time>2020-10-28T11:53:34Z</time>
      </trkpt>
      <trkpt lat="44.57532" lon="5.62331">
        <ele>1351.917</ele>
        <time>2020-10-28T11:53:39Z</time>
      </trkpt>
      <trkpt lat="44.57528" lon="5.62332">
        <ele>1352.091</ele>
        <time>2020-10-28T11:53:43Z</time>
      </trkpt>
      <trkpt lat="44.57512" lon="5.62326">
        <ele>1350.691</ele>
        <time>2020-10-28T11:54:02Z</time>
      </trkpt>
      <trkpt lat="44.57496" lon="5.62332">
        <ele>1347.328</ele>
        <time>2020-10-28T11:54:23Z</time>
      </trkpt>
      <trkpt lat="44.57417" lon="5.62336">
        <ele>1337.489</ele>
        <time>2020-10-28T11:54:39Z</time>
      </trkpt>
      <trkpt lat="44.57412" lon="5.6234">
        <ele>1335.892</ele>
        <time>2020-10-28T11:55:00Z</time>
      </trkpt>
      <trkpt lat="44.57422" lon="5.62367">
        <ele>1330.847</ele>
        <time>2020-10-28T11:55:21Z</time>
      </trkpt>
      <trkpt lat="44.57436" lon="5.62391">
        <ele>1326.817</ele>
        <time>2020-10-28T11:55:38Z</time>
      </trkpt>
      <trkpt lat="44.57444" lon="5.62399">
        <ele>1326.48</ele>
        <time>2020-10-28T11:55:50Z</time>
      </trkpt>
      <trkpt lat="44.57458" lon="5.62411">
        <ele>1326.806</ele>
        <time>2020-10-28T11:56:06Z</time>
      </trkpt>
      <trkpt lat="44.57465" lon="5.62421">
        <ele>1326.186</ele>
        <time>2020-10-28T11:56:16Z</time>
      </trkpt>
      <trkpt lat="44.57467" lon="5.6243">
        <ele>1324.771</ele>
        <time>2020-10-28T11:56:36Z</time>
      </trkpt>
      <trkpt lat="44.5748" lon="5.6246">
        <ele>1322.026</ele>
        <time>2020-10-28T11:56:56Z</time>
      </trkpt>
      <trkpt lat="44.57484" lon="5.62468">
        <ele>1321.105</ele>
        <time>2020-10-28T11:57:02Z</time>
      </trkpt>
      <trkpt lat="44.57492" lon="5.62484">
        <ele>1318.791</ele>
        <time>2020-10-28T11:57:12Z</time>
      </trkpt>
      <trkpt lat="44.57512" lon="5.62484">
        <ele>1316.158</ele>
        <time>2020-10-28T11:57:31Z</time>
      </trkpt>
      <trkpt lat="44.57527" lon="5.62474">
        <ele>1314.812</ele>
        <time>2020-10-28T11:57:46Z</time>
      </trkpt>
      <trkpt lat="44.57537" lon="5.62471">
        <ele>1312.618</ele>
        <time>2020-10-28T11:57:56Z</time>
      </trkpt>
      <trkpt lat="44.57552" lon="5.6245">
        <ele>1312.096</ele>
        <time>2020-10-28T11:58:15Z</time>
      </trkpt>
      <trkpt lat="44.57573" lon="5.62435">
        <ele>1312.806</ele>
        <time>2020-10-28T11:58:35Z</time>
      </trkpt>
      <trkpt lat="44.57582" lon="5.62432">
        <ele>1312.394</ele>
        <time>2020-10-28T11:58:43Z</time>
      </trkpt>
      <trkpt lat="44.57598" lon="5.62439">
        <ele>1312.652</ele>
        <time>2020-10-28T11:59:00Z</time>
      </trkpt>
      <trkpt lat="44.57612" lon="5.6245">
        <ele>1312.312</ele>
        <time>2020-10-28T11:59:16Z</time>
      </trkpt>
      <trkpt lat="44.57618" lon="5.62467">
        <ele>1310.653</ele>
        <time>2020-10-28T11:59:37Z</time>
      </trkpt>
      <trkpt lat="44.57617" lon="5.62472">
        <ele>1309.758</ele>
        <time>2020-10-28T11:59:42Z</time>
      </trkpt>
      <trkpt lat="44.57613" lon="5.62486">
        <ele>1307.244</ele>
        <time>2020-10-28T11:59:58Z</time>
      </trkpt>
      <trkpt lat="44.5761" lon="5.625">
        <ele>1304.945</ele>
        <time>2020-10-28T12:00:13Z</time>
      </trkpt>
      <trkpt lat="44.57607" lon="5.62511">
        <ele>1303.157</ele>
        <time>2020-10-28T12:00:22Z</time>
      </trkpt>
      <trkpt lat="44.576" lon="5.62532">
        <ele>1299.804</ele>
        <time>2020-10-28T12:00:40Z</time>
      </trkpt>
      <trkpt lat="44.5759" lon="5.62548">
        <ele>1297.317</ele>
        <time>2020-10-28T12:00:56Z</time>
      </trkpt>
      <trkpt lat="44.57589" lon="5.6255">
        <ele>1297.001</ele>
        <time>2020-10-28T12:00:58Z</time>
      </trkpt>
      <trkpt lat="44.57581" lon="5.62559">
        <ele>1295.509</ele>
        <time>2020-10-28T12:01:15Z</time>
      </trkpt>
      <trkpt lat="44.57581" lon="5.6256">
        <ele>1295.427</ele>
        <time>2020-10-28T12:01:16Z</time>
      </trkpt>
      <trkpt lat="44.5757" lon="5.62572">
        <ele>1293.732</ele>
        <time>2020-10-28T12:01:30Z</time>
      </trkpt>
      <trkpt lat="44.57556" lon="5.6259">
        <ele>1291.237</ele>
        <time>2020-10-28T12:01:50Z</time>
      </trkpt>
      <trkpt lat="44.57543" lon="5.62612">
        <ele>1288.436</ele>
        <time>2020-10-28T12:02:08Z</time>
      </trkpt>
      <trkpt lat="44.57531" lon="5.62635">
        <ele>1284.757</ele>
        <time>2020-10-28T12:02:26Z</time>
      </trkpt>
      <trkpt lat="44.57524" lon="5.62642">
        <ele>1284.441</ele>
        <time>2020-10-28T12:02:34Z</time>
      </trkpt>
      <trkpt lat="44.57509" lon="5.62651">
        <ele>1286.289</ele>
        <time>2020-10-28T12:02:48Z</time>
      </trkpt>
      <trkpt lat="44.57491" lon="5.62658">
        <ele>1286.527</ele>
        <time>2020-10-28T12:03:05Z</time>
      </trkpt>
      <trkpt lat="44.5747" lon="5.62668">
        <ele>1284.986</ele>
        <time>2020-10-28T12:03:24Z</time>
      </trkpt>
      <trkpt lat="44.57452" lon="5.62669">
        <ele>1286.645</ele>
        <time>2020-10-28T12:03:39Z</time>
      </trkpt>
      <trkpt lat="44.5744" lon="5.62668">
        <ele>1287.052</ele>
        <time>2020-10-28T12:03:49Z</time>
      </trkpt>
      <trkpt lat="44.57426" lon="5.62666">
        <ele>1285.493</ele>
        <time>2020-10-28T12:04:01Z</time>
      </trkpt>
      <trkpt lat="44.57413" lon="5.62653">
        <ele>1285.205</ele>
        <time>2020-10-28T12:04:15Z</time>
      </trkpt>
      <trkpt lat="44.57408" lon="5.62655">
        <ele>1284.822</ele>
        <time>2020-10-28T12:04:19Z</time>
      </trkpt>
      <trkpt lat="44.57406" lon="5.62656">
        <ele>1284.583</ele>
        <time>2020-10-28T12:04:21Z</time>
      </trkpt>
      <trkpt lat="44.57396" lon="5.62671">
        <ele>1281.682</ele>
        <time>2020-10-28T12:04:35Z</time>
      </trkpt>
      <trkpt lat="44.57375" lon="5.62668">
        <ele>1281.198</ele>
        <time>2020-10-28T12:06:07Z</time>
      </trkpt>
      <trkpt lat="44.57365" lon="5.62661">
        <ele>1282.119</ele>
        <time>2020-10-28T12:06:24Z</time>
      </trkpt>
      <trkpt lat="44.57347" lon="5.62654">
        <ele>1281.488</ele>
        <time>2020-10-28T12:06:40Z</time>
      </trkpt>
      <trkpt lat="44.57334" lon="5.62638">
        <ele>1282.119</ele>
        <time>2020-10-28T12:06:57Z</time>
      </trkpt>
      <trkpt lat="44.57324" lon="5.62654">
        <ele>1280.273</ele>
        <time>2020-10-28T12:07:12Z</time>
      </trkpt>
      <trkpt lat="44.57311" lon="5.62665">
        <ele>1279</ele>
        <time>2020-10-28T12:07:25Z</time>
      </trkpt>
      <trkpt lat="44.57295" lon="5.62669">
        <ele>1279.43</ele>
        <time>2020-10-28T12:07:43Z</time>
      </trkpt>
      <trkpt lat="44.57288" lon="5.62671">
        <ele>1279.452</ele>
        <time>2020-10-28T12:07:51Z</time>
      </trkpt>
      <trkpt lat="44.5727" lon="5.62685">
        <ele>1278.219</ele>
        <time>2020-10-28T12:08:06Z</time>
      </trkpt>
      <trkpt lat="44.57269" lon="5.62686">
        <ele>1278.091</ele>
        <time>2020-10-28T12:08:07Z</time>
      </trkpt>
      <trkpt lat="44.57257" lon="5.62703">
        <ele>1275.279</ele>
        <time>2020-10-28T12:08:21Z</time>
      </trkpt>
      <trkpt lat="44.57252" lon="5.62709">
        <ele>1274.403</ele>
        <time>2020-10-28T12:08:26Z</time>
      </trkpt>
      <trkpt lat="44.5725" lon="5.62711">
        <ele>1274.014</ele>
        <time>2020-10-28T12:08:28Z</time>
      </trkpt>
      <trkpt lat="44.57238" lon="5.62726">
        <ele>1274.114</ele>
        <time>2020-10-28T12:08:44Z</time>
      </trkpt>
      <trkpt lat="44.57221" lon="5.6276">
        <ele>1273.105</ele>
        <time>2020-10-28T12:09:08Z</time>
      </trkpt>
      <trkpt lat="44.57222" lon="5.62776">
        <ele>1271.232</ele>
        <time>2020-10-28T12:09:20Z</time>
      </trkpt>
      <trkpt lat="44.57222" lon="5.62805">
        <ele>1271.062</ele>
        <time>2020-10-28T12:09:42Z</time>
      </trkpt>
      <trkpt lat="44.57208" lon="5.62834">
        <ele>1270.962</ele>
        <time>2020-10-28T12:10:00Z</time>
      </trkpt>
      <trkpt lat="44.57194" lon="5.62852">
        <ele>1269.277</ele>
        <time>2020-10-28T12:10:14Z</time>
      </trkpt>
      <trkpt lat="44.57187" lon="5.62853">
        <ele>1269.183</ele>
        <time>2020-10-28T12:10:22Z</time>
      </trkpt>
      <trkpt lat="44.57172" lon="5.62848">
        <ele>1269.868</ele>
        <time>2020-10-28T12:10:42Z</time>
      </trkpt>
      <trkpt lat="44.57169" lon="5.62847">
        <ele>1269.963</ele>
        <time>2020-10-28T12:10:45Z</time>
      </trkpt>
      <trkpt lat="44.57147" lon="5.62842">
        <ele>1269.076</ele>
        <time>2020-10-28T12:11:07Z</time>
      </trkpt>
      <trkpt lat="44.57137" lon="5.62831">
        <ele>1269.74</ele>
        <time>2020-10-28T12:11:19Z</time>
      </trkpt>
      <trkpt lat="44.57124" lon="5.62838">
        <ele>1265.908</ele>
        <time>2020-10-28T12:11:35Z</time>
      </trkpt>
      <trkpt lat="44.57126" lon="5.62861">
        <ele>1261.851</ele>
        <time>2020-10-28T12:11:52Z</time>
      </trkpt>
      <trkpt lat="44.57134" lon="5.62872">
        <ele>1261.465</ele>
        <time>2020-10-28T12:12:09Z</time>
      </trkpt>
      <trkpt lat="44.57144" lon="5.62881">
        <ele>1261.432</ele>
        <time>2020-10-28T12:12:24Z</time>
      </trkpt>
      <trkpt lat="44.57136" lon="5.62903">
        <ele>1254.681</ele>
        <time>2020-10-28T12:12:41Z</time>
      </trkpt>
      <trkpt lat="44.5712" lon="5.62938">
        <ele>1251.76</ele>
        <time>2020-10-28T12:13:02Z</time>
      </trkpt>
      <trkpt lat="44.57127" lon="5.62955">
        <ele>1252.03</ele>
        <time>2020-10-28T12:13:14Z</time>
      </trkpt>
      <trkpt lat="44.5713" lon="5.62976">
        <ele>1252.909</ele>
        <time>2020-10-28T12:13:24Z</time>
      </trkpt>
      <trkpt lat="44.57136" lon="5.63003">
        <ele>1253.3</ele>
        <time>2020-10-28T12:13:46Z</time>
      </trkpt>
      <trkpt lat="44.57142" lon="5.63024">
        <ele>1251.654</ele>
        <time>2020-10-28T12:14:03Z</time>
      </trkpt>
      <trkpt lat="44.5714" lon="5.63043">
        <ele>1252.031</ele>
        <time>2020-10-28T12:14:22Z</time>
      </trkpt>
      <trkpt lat="44.5713" lon="5.63071">
        <ele>1255.26</ele>
        <time>2020-10-28T12:14:43Z</time>
      </trkpt>
      <trkpt lat="44.57124" lon="5.63083">
        <ele>1255.957</ele>
        <time>2020-10-28T12:15:02Z</time>
      </trkpt>
      <trkpt lat="44.57122" lon="5.63084">
        <ele>1256.382</ele>
        <time>2020-10-28T12:15:12Z</time>
      </trkpt>
      <trkpt lat="44.57122" lon="5.63088">
        <ele>1257.084</ele>
        <time>2020-10-28T12:15:29Z</time>
      </trkpt>
      <trkpt lat="44.57125" lon="5.63095">
        <ele>1257.458</ele>
        <time>2020-10-28T12:15:50Z</time>
      </trkpt>
      <trkpt lat="44.57122" lon="5.63094">
        <ele>1257.893</ele>
        <time>2020-10-28T12:16:01Z</time>
      </trkpt>
      <trkpt lat="44.57117" lon="5.63086">
        <ele>1257.844</ele>
        <time>2020-10-28T12:16:17Z</time>
      </trkpt>
      <trkpt lat="44.57117" lon="5.6309">
        <ele>1258.218</ele>
        <time>2020-10-28T12:16:34Z</time>
      </trkpt>
      <trkpt lat="44.57121" lon="5.63092">
        <ele>1257.655</ele>
        <time>2020-10-28T12:17:01Z</time>
      </trkpt>
      <trkpt lat="44.57123" lon="5.6309">
        <ele>1257.143</ele>
        <time>2020-10-28T12:17:29Z</time>
      </trkpt>
    </trkseg>
  </trk>
</gpx>